<?xml version="1.0" encoding="UTF-8"?>
<gpx xmlns="http://www.topografix.com/GPX/1/1" xmlns:xsi="http://www.w3.org/2001/XMLSchema-instance" version="1.1" creator="Trace de Trail" xsi:schemaLocation="http://www.topografix.com/GPX/1/1 http://www.topografix.com/GPX/1/1/gpx.xsd">
  <metadata>
    <name>Semi-Marathon de Dinant  2026 - Semi-marathon de Dinant</name>
    <desc>Parcours créé sur Trace de Trail</desc>
    <link href="https://tracedetrail.fr/fr/trace/355538">
      <text>Cartographie du parcours</text>
    </link>
    <time>2026-08-21T19:32:21+00:00</time>
  </metadata>
  <wpt lat="50.21431" lon="4.82236">
    <ele>97</ele>
    <type>depart</type>
  </wpt>
  <wpt lat="50.25343" lon="4.91621">
    <ele>93</ele>
    <type>arrivee</type>
  </wpt>
  <wpt lat="50.21364" lon="4.82378">
    <ele>98</ele>
    <name>Ravito 1 : Pont Hastière</name>
    <type>fanzone_ravitoc_ravitoliquide</type>
  </wpt>
  <wpt lat="50.20498" lon="4.86715">
    <ele>94</ele>
    <name>Ravito 2 : Café Le Rio</name>
    <type>fanzone_ravitoc_ravitoliquide_toilettes</type>
  </wpt>
  <wpt lat="50.24906" lon="4.91789">
    <ele>91</ele>
    <name>Ravito 3 : Chez Lucas</name>
    <type>ravitoc_ravitoliquide_toilettes</type>
  </wpt>
  <trk>
    <name>Semi-Marathon de Dinant  2026 - Semi-marathon de Dinant sur TraceDeTrail.fr</name>
    <src>Trace de Trail</src>
    <trkseg>
      <trkpt lat="50.21431" lon="4.82236">
        <ele>97</ele>
        <time>2026-08-21T19:32:21+00:00</time>
      </trkpt>
      <trkpt lat="50.21448" lon="4.82208">
        <ele>97</ele>
        <time>2026-08-21T19:32:24+00:00</time>
      </trkpt>
      <trkpt lat="50.2147" lon="4.82171">
        <ele>97</ele>
        <time>2026-08-21T19:32:27+00:00</time>
      </trkpt>
      <trkpt lat="50.2145" lon="4.82147">
        <ele>97</ele>
        <time>2026-08-21T19:32:30+00:00</time>
      </trkpt>
      <trkpt lat="50.2143" lon="4.82126">
        <ele>98</ele>
        <time>2026-08-21T19:32:33+00:00</time>
      </trkpt>
      <trkpt lat="50.21409" lon="4.82108">
        <ele>99</ele>
        <time>2026-08-21T19:32:36+00:00</time>
      </trkpt>
      <trkpt lat="50.21382" lon="4.82086">
        <ele>99</ele>
        <time>2026-08-21T19:32:39+00:00</time>
      </trkpt>
      <trkpt lat="50.21345" lon="4.82057">
        <ele>100</ele>
        <time>2026-08-21T19:32:42+00:00</time>
      </trkpt>
      <trkpt lat="50.2133" lon="4.82053">
        <ele>99</ele>
        <time>2026-08-21T19:32:45+00:00</time>
      </trkpt>
      <trkpt lat="50.2132" lon="4.82037">
        <ele>101</ele>
        <time>2026-08-21T19:32:48+00:00</time>
      </trkpt>
      <trkpt lat="50.21298" lon="4.8202">
        <ele>100</ele>
        <time>2026-08-21T19:32:51+00:00</time>
      </trkpt>
      <trkpt lat="50.21274" lon="4.82003">
        <ele>100</ele>
        <time>2026-08-21T19:32:54+00:00</time>
      </trkpt>
      <trkpt lat="50.21239" lon="4.81977">
        <ele>101</ele>
        <time>2026-08-21T19:32:57+00:00</time>
      </trkpt>
      <trkpt lat="50.21217" lon="4.8196">
        <ele>102</ele>
        <time>2026-08-21T19:33:00+00:00</time>
      </trkpt>
      <trkpt lat="50.2119" lon="4.81939">
        <ele>103</ele>
        <time>2026-08-21T19:33:03+00:00</time>
      </trkpt>
      <trkpt lat="50.21166" lon="4.81921">
        <ele>103</ele>
        <time>2026-08-21T19:33:06+00:00</time>
      </trkpt>
      <trkpt lat="50.21128" lon="4.81893">
        <ele>103</ele>
        <time>2026-08-21T19:33:09+00:00</time>
      </trkpt>
      <trkpt lat="50.211" lon="4.81869">
        <ele>104</ele>
        <time>2026-08-21T19:33:12+00:00</time>
      </trkpt>
      <trkpt lat="50.21094" lon="4.81863">
        <ele>107</ele>
        <time>2026-08-21T19:33:15+00:00</time>
      </trkpt>
      <trkpt lat="50.21075" lon="4.81848">
        <ele>110</ele>
        <time>2026-08-21T19:33:18+00:00</time>
      </trkpt>
      <trkpt lat="50.21052" lon="4.81828">
        <ele>110</ele>
        <time>2026-08-21T19:33:21+00:00</time>
      </trkpt>
      <trkpt lat="50.21029" lon="4.81812">
        <ele>110</ele>
        <time>2026-08-21T19:33:24+00:00</time>
      </trkpt>
      <trkpt lat="50.20998" lon="4.8179">
        <ele>111</ele>
        <time>2026-08-21T19:33:27+00:00</time>
      </trkpt>
      <trkpt lat="50.20975" lon="4.81775">
        <ele>111</ele>
        <time>2026-08-21T19:33:30+00:00</time>
      </trkpt>
      <trkpt lat="50.20953" lon="4.81762">
        <ele>111</ele>
        <time>2026-08-21T19:33:33+00:00</time>
      </trkpt>
      <trkpt lat="50.20929" lon="4.81748">
        <ele>110</ele>
        <time>2026-08-21T19:33:36+00:00</time>
      </trkpt>
      <trkpt lat="50.20908" lon="4.81732">
        <ele>110</ele>
        <time>2026-08-21T19:33:39+00:00</time>
      </trkpt>
      <trkpt lat="50.20882" lon="4.81713">
        <ele>110</ele>
        <time>2026-08-21T19:33:42+00:00</time>
      </trkpt>
      <trkpt lat="50.20878" lon="4.81715">
        <ele>105</ele>
        <time>2026-08-21T19:33:45+00:00</time>
      </trkpt>
      <trkpt lat="50.20852" lon="4.81697">
        <ele>106</ele>
        <time>2026-08-21T19:33:48+00:00</time>
      </trkpt>
      <trkpt lat="50.20826" lon="4.8168">
        <ele>102</ele>
        <time>2026-08-21T19:33:51+00:00</time>
      </trkpt>
      <trkpt lat="50.20797" lon="4.8166">
        <ele>101</ele>
        <time>2026-08-21T19:33:54+00:00</time>
      </trkpt>
      <trkpt lat="50.20774" lon="4.81646">
        <ele>101</ele>
        <time>2026-08-21T19:33:57+00:00</time>
      </trkpt>
      <trkpt lat="50.20743" lon="4.81627">
        <ele>101</ele>
        <time>2026-08-21T19:34:00+00:00</time>
      </trkpt>
      <trkpt lat="50.20722" lon="4.81616">
        <ele>101</ele>
        <time>2026-08-21T19:34:03+00:00</time>
      </trkpt>
      <trkpt lat="50.20698" lon="4.81603">
        <ele>100</ele>
        <time>2026-08-21T19:34:06+00:00</time>
      </trkpt>
      <trkpt lat="50.2066" lon="4.8159">
        <ele>99</ele>
        <time>2026-08-21T19:34:09+00:00</time>
      </trkpt>
      <trkpt lat="50.20628" lon="4.81582">
        <ele>98</ele>
        <time>2026-08-21T19:34:12+00:00</time>
      </trkpt>
      <trkpt lat="50.20597" lon="4.81574">
        <ele>98</ele>
        <time>2026-08-21T19:34:15+00:00</time>
      </trkpt>
      <trkpt lat="50.20537" lon="4.81558">
        <ele>98</ele>
        <time>2026-08-21T19:34:18+00:00</time>
      </trkpt>
      <trkpt lat="50.20508" lon="4.81549">
        <ele>98</ele>
        <time>2026-08-21T19:34:21+00:00</time>
      </trkpt>
      <trkpt lat="50.20479" lon="4.81541">
        <ele>99</ele>
        <time>2026-08-21T19:34:24+00:00</time>
      </trkpt>
      <trkpt lat="50.20446" lon="4.81531">
        <ele>99</ele>
        <time>2026-08-21T19:34:27+00:00</time>
      </trkpt>
      <trkpt lat="50.20416" lon="4.81524">
        <ele>100</ele>
        <time>2026-08-21T19:34:30+00:00</time>
      </trkpt>
      <trkpt lat="50.20386" lon="4.81517">
        <ele>100</ele>
        <time>2026-08-21T19:34:33+00:00</time>
      </trkpt>
      <trkpt lat="50.20343" lon="4.81508">
        <ele>103</ele>
        <time>2026-08-21T19:34:36+00:00</time>
      </trkpt>
      <trkpt lat="50.20302" lon="4.815">
        <ele>104</ele>
        <time>2026-08-21T19:34:39+00:00</time>
      </trkpt>
      <trkpt lat="50.20279" lon="4.81498">
        <ele>104</ele>
        <time>2026-08-21T19:34:42+00:00</time>
      </trkpt>
      <trkpt lat="50.20255" lon="4.81496">
        <ele>104</ele>
        <time>2026-08-21T19:34:45+00:00</time>
      </trkpt>
      <trkpt lat="50.20225" lon="4.81495">
        <ele>104</ele>
        <time>2026-08-21T19:34:48+00:00</time>
      </trkpt>
      <trkpt lat="50.202" lon="4.81497">
        <ele>104</ele>
        <time>2026-08-21T19:34:51+00:00</time>
      </trkpt>
      <trkpt lat="50.20168" lon="4.815">
        <ele>104</ele>
        <time>2026-08-21T19:34:54+00:00</time>
      </trkpt>
      <trkpt lat="50.20147" lon="4.81505">
        <ele>103</ele>
        <time>2026-08-21T19:34:57+00:00</time>
      </trkpt>
      <trkpt lat="50.2012" lon="4.81513">
        <ele>103</ele>
        <time>2026-08-21T19:35:00+00:00</time>
      </trkpt>
      <trkpt lat="50.20076" lon="4.81526">
        <ele>102</ele>
        <time>2026-08-21T19:35:03+00:00</time>
      </trkpt>
      <trkpt lat="50.20046" lon="4.81539">
        <ele>102</ele>
        <time>2026-08-21T19:35:06+00:00</time>
      </trkpt>
      <trkpt lat="50.20016" lon="4.81552">
        <ele>100</ele>
        <time>2026-08-21T19:35:09+00:00</time>
      </trkpt>
      <trkpt lat="50.19966" lon="4.81573">
        <ele>98</ele>
        <time>2026-08-21T19:35:12+00:00</time>
      </trkpt>
      <trkpt lat="50.1996" lon="4.81573">
        <ele>98</ele>
        <time>2026-08-21T19:35:15+00:00</time>
      </trkpt>
      <trkpt lat="50.19959" lon="4.8157">
        <ele>98</ele>
        <time>2026-08-21T19:35:18+00:00</time>
      </trkpt>
      <trkpt lat="50.19939" lon="4.81576">
        <ele>98</ele>
        <time>2026-08-21T19:35:21+00:00</time>
      </trkpt>
      <trkpt lat="50.19914" lon="4.81584">
        <ele>98</ele>
        <time>2026-08-21T19:35:24+00:00</time>
      </trkpt>
      <trkpt lat="50.19878" lon="4.81584">
        <ele>99</ele>
        <time>2026-08-21T19:35:27+00:00</time>
      </trkpt>
      <trkpt lat="50.19864" lon="4.81586">
        <ele>102</ele>
        <time>2026-08-21T19:35:30+00:00</time>
      </trkpt>
      <trkpt lat="50.19855" lon="4.81589">
        <ele>99</ele>
        <time>2026-08-21T19:35:33+00:00</time>
      </trkpt>
      <trkpt lat="50.1983" lon="4.81605">
        <ele>100</ele>
        <time>2026-08-21T19:35:36+00:00</time>
      </trkpt>
      <trkpt lat="50.198" lon="4.81644">
        <ele>100</ele>
        <time>2026-08-21T19:35:39+00:00</time>
      </trkpt>
      <trkpt lat="50.19772" lon="4.81677">
        <ele>103</ele>
        <time>2026-08-21T19:35:42+00:00</time>
      </trkpt>
      <trkpt lat="50.19757" lon="4.81705">
        <ele>103</ele>
        <time>2026-08-21T19:35:45+00:00</time>
      </trkpt>
      <trkpt lat="50.19741" lon="4.81737">
        <ele>104</ele>
        <time>2026-08-21T19:35:48+00:00</time>
      </trkpt>
      <trkpt lat="50.19708" lon="4.81779">
        <ele>103</ele>
        <time>2026-08-21T19:35:51+00:00</time>
      </trkpt>
      <trkpt lat="50.19705" lon="4.81786">
        <ele>106</ele>
        <time>2026-08-21T19:35:54+00:00</time>
      </trkpt>
      <trkpt lat="50.19703" lon="4.81805">
        <ele>103</ele>
        <time>2026-08-21T19:35:57+00:00</time>
      </trkpt>
      <trkpt lat="50.19699" lon="4.81814">
        <ele>103</ele>
        <time>2026-08-21T19:36:00+00:00</time>
      </trkpt>
      <trkpt lat="50.19697" lon="4.81821">
        <ele>103</ele>
        <time>2026-08-21T19:36:03+00:00</time>
      </trkpt>
      <trkpt lat="50.19684" lon="4.81841">
        <ele>104</ele>
        <time>2026-08-21T19:36:06+00:00</time>
      </trkpt>
      <trkpt lat="50.19667" lon="4.81865">
        <ele>104</ele>
        <time>2026-08-21T19:36:09+00:00</time>
      </trkpt>
      <trkpt lat="50.19648" lon="4.81891">
        <ele>103</ele>
        <time>2026-08-21T19:36:12+00:00</time>
      </trkpt>
      <trkpt lat="50.1962" lon="4.81929">
        <ele>103</ele>
        <time>2026-08-21T19:36:15+00:00</time>
      </trkpt>
      <trkpt lat="50.19601" lon="4.81952">
        <ele>103</ele>
        <time>2026-08-21T19:36:18+00:00</time>
      </trkpt>
      <trkpt lat="50.19577" lon="4.8198">
        <ele>103</ele>
        <time>2026-08-21T19:36:21+00:00</time>
      </trkpt>
      <trkpt lat="50.19558" lon="4.81998">
        <ele>103</ele>
        <time>2026-08-21T19:36:24+00:00</time>
      </trkpt>
      <trkpt lat="50.19538" lon="4.82017">
        <ele>103</ele>
        <time>2026-08-21T19:36:27+00:00</time>
      </trkpt>
      <trkpt lat="50.19518" lon="4.82044">
        <ele>103</ele>
        <time>2026-08-21T19:36:30+00:00</time>
      </trkpt>
      <trkpt lat="50.19485" lon="4.82087">
        <ele>101</ele>
        <time>2026-08-21T19:36:33+00:00</time>
      </trkpt>
      <trkpt lat="50.19468" lon="4.82119">
        <ele>101</ele>
        <time>2026-08-21T19:36:36+00:00</time>
      </trkpt>
      <trkpt lat="50.19451" lon="4.82169">
        <ele>99</ele>
        <time>2026-08-21T19:36:39+00:00</time>
      </trkpt>
      <trkpt lat="50.1945" lon="4.82181">
        <ele>98</ele>
        <time>2026-08-21T19:36:42+00:00</time>
      </trkpt>
      <trkpt lat="50.19451" lon="4.8219">
        <ele>99</ele>
        <time>2026-08-21T19:36:45+00:00</time>
      </trkpt>
      <trkpt lat="50.19451" lon="4.82197">
        <ele>99</ele>
        <time>2026-08-21T19:36:48+00:00</time>
      </trkpt>
      <trkpt lat="50.19476" lon="4.82181">
        <ele>99</ele>
        <time>2026-08-21T19:36:51+00:00</time>
      </trkpt>
      <trkpt lat="50.19521" lon="4.82154">
        <ele>99</ele>
        <time>2026-08-21T19:36:54+00:00</time>
      </trkpt>
      <trkpt lat="50.19552" lon="4.82137">
        <ele>97</ele>
        <time>2026-08-21T19:36:57+00:00</time>
      </trkpt>
      <trkpt lat="50.19575" lon="4.82125">
        <ele>97</ele>
        <time>2026-08-21T19:37:00+00:00</time>
      </trkpt>
      <trkpt lat="50.19603" lon="4.82111">
        <ele>97</ele>
        <time>2026-08-21T19:37:03+00:00</time>
      </trkpt>
      <trkpt lat="50.19625" lon="4.82093">
        <ele>98</ele>
        <time>2026-08-21T19:37:06+00:00</time>
      </trkpt>
      <trkpt lat="50.19657" lon="4.82067">
        <ele>98</ele>
        <time>2026-08-21T19:37:09+00:00</time>
      </trkpt>
      <trkpt lat="50.19655" lon="4.82066">
        <ele>98</ele>
        <time>2026-08-21T19:37:12+00:00</time>
      </trkpt>
      <trkpt lat="50.19657" lon="4.82067">
        <ele>98</ele>
        <time>2026-08-21T19:37:15+00:00</time>
      </trkpt>
      <trkpt lat="50.19685" lon="4.82044">
        <ele>97</ele>
        <time>2026-08-21T19:37:18+00:00</time>
      </trkpt>
      <trkpt lat="50.19693" lon="4.82036">
        <ele>98</ele>
        <time>2026-08-21T19:37:21+00:00</time>
      </trkpt>
      <trkpt lat="50.19714" lon="4.82013">
        <ele>97</ele>
        <time>2026-08-21T19:37:24+00:00</time>
      </trkpt>
      <trkpt lat="50.19754" lon="4.81967">
        <ele>97</ele>
        <time>2026-08-21T19:37:27+00:00</time>
      </trkpt>
      <trkpt lat="50.19774" lon="4.81943">
        <ele>97</ele>
        <time>2026-08-21T19:37:30+00:00</time>
      </trkpt>
      <trkpt lat="50.19804" lon="4.81909">
        <ele>97</ele>
        <time>2026-08-21T19:37:33+00:00</time>
      </trkpt>
      <trkpt lat="50.19817" lon="4.81901">
        <ele>97</ele>
        <time>2026-08-21T19:37:36+00:00</time>
      </trkpt>
      <trkpt lat="50.19835" lon="4.8188">
        <ele>97</ele>
        <time>2026-08-21T19:37:39+00:00</time>
      </trkpt>
      <trkpt lat="50.19868" lon="4.81844">
        <ele>97</ele>
        <time>2026-08-21T19:37:42+00:00</time>
      </trkpt>
      <trkpt lat="50.19886" lon="4.81826">
        <ele>97</ele>
        <time>2026-08-21T19:37:45+00:00</time>
      </trkpt>
      <trkpt lat="50.19912" lon="4.81804">
        <ele>97</ele>
        <time>2026-08-21T19:37:48+00:00</time>
      </trkpt>
      <trkpt lat="50.19946" lon="4.81777">
        <ele>97</ele>
        <time>2026-08-21T19:37:51+00:00</time>
      </trkpt>
      <trkpt lat="50.19968" lon="4.81764">
        <ele>98</ele>
        <time>2026-08-21T19:37:54+00:00</time>
      </trkpt>
      <trkpt lat="50.19993" lon="4.81754">
        <ele>98</ele>
        <time>2026-08-21T19:37:57+00:00</time>
      </trkpt>
      <trkpt lat="50.20034" lon="4.81741">
        <ele>98</ele>
        <time>2026-08-21T19:38:00+00:00</time>
      </trkpt>
      <trkpt lat="50.20073" lon="4.81732">
        <ele>99</ele>
        <time>2026-08-21T19:38:03+00:00</time>
      </trkpt>
      <trkpt lat="50.20095" lon="4.8173">
        <ele>101</ele>
        <time>2026-08-21T19:38:06+00:00</time>
      </trkpt>
      <trkpt lat="50.20119" lon="4.81729">
        <ele>101</ele>
        <time>2026-08-21T19:38:09+00:00</time>
      </trkpt>
      <trkpt lat="50.20141" lon="4.81731">
        <ele>101</ele>
        <time>2026-08-21T19:38:12+00:00</time>
      </trkpt>
      <trkpt lat="50.20165" lon="4.81733">
        <ele>100</ele>
        <time>2026-08-21T19:38:15+00:00</time>
      </trkpt>
      <trkpt lat="50.20202" lon="4.8174">
        <ele>100</ele>
        <time>2026-08-21T19:38:18+00:00</time>
      </trkpt>
      <trkpt lat="50.20238" lon="4.81747">
        <ele>99</ele>
        <time>2026-08-21T19:38:21+00:00</time>
      </trkpt>
      <trkpt lat="50.20275" lon="4.81754">
        <ele>99</ele>
        <time>2026-08-21T19:38:24+00:00</time>
      </trkpt>
      <trkpt lat="50.20311" lon="4.81761">
        <ele>99</ele>
        <time>2026-08-21T19:38:27+00:00</time>
      </trkpt>
      <trkpt lat="50.20348" lon="4.81767">
        <ele>99</ele>
        <time>2026-08-21T19:38:30+00:00</time>
      </trkpt>
      <trkpt lat="50.20414" lon="4.8178">
        <ele>99</ele>
        <time>2026-08-21T19:38:33+00:00</time>
      </trkpt>
      <trkpt lat="50.20449" lon="4.81787">
        <ele>100</ele>
        <time>2026-08-21T19:38:36+00:00</time>
      </trkpt>
      <trkpt lat="50.20483" lon="4.81794">
        <ele>101</ele>
        <time>2026-08-21T19:38:39+00:00</time>
      </trkpt>
      <trkpt lat="50.20518" lon="4.81801">
        <ele>102</ele>
        <time>2026-08-21T19:38:42+00:00</time>
      </trkpt>
      <trkpt lat="50.20552" lon="4.81808">
        <ele>103</ele>
        <time>2026-08-21T19:38:45+00:00</time>
      </trkpt>
      <trkpt lat="50.20594" lon="4.81816">
        <ele>103</ele>
        <time>2026-08-21T19:38:48+00:00</time>
      </trkpt>
      <trkpt lat="50.2062" lon="4.81821">
        <ele>102</ele>
        <time>2026-08-21T19:38:51+00:00</time>
      </trkpt>
      <trkpt lat="50.20659" lon="4.81828">
        <ele>102</ele>
        <time>2026-08-21T19:38:54+00:00</time>
      </trkpt>
      <trkpt lat="50.20686" lon="4.81835">
        <ele>102</ele>
        <time>2026-08-21T19:38:57+00:00</time>
      </trkpt>
      <trkpt lat="50.20735" lon="4.81848">
        <ele>102</ele>
        <time>2026-08-21T19:39:00+00:00</time>
      </trkpt>
      <trkpt lat="50.20752" lon="4.81855">
        <ele>99</ele>
        <time>2026-08-21T19:39:03+00:00</time>
      </trkpt>
      <trkpt lat="50.20765" lon="4.81862">
        <ele>99</ele>
        <time>2026-08-21T19:39:06+00:00</time>
      </trkpt>
      <trkpt lat="50.2078" lon="4.81871">
        <ele>99</ele>
        <time>2026-08-21T19:39:09+00:00</time>
      </trkpt>
      <trkpt lat="50.20796" lon="4.81881">
        <ele>100</ele>
        <time>2026-08-21T19:39:12+00:00</time>
      </trkpt>
      <trkpt lat="50.20818" lon="4.81898">
        <ele>100</ele>
        <time>2026-08-21T19:39:15+00:00</time>
      </trkpt>
      <trkpt lat="50.20848" lon="4.8192">
        <ele>100</ele>
        <time>2026-08-21T19:39:18+00:00</time>
      </trkpt>
      <trkpt lat="50.20868" lon="4.81939">
        <ele>100</ele>
        <time>2026-08-21T19:39:21+00:00</time>
      </trkpt>
      <trkpt lat="50.20895" lon="4.81966">
        <ele>98</ele>
        <time>2026-08-21T19:39:24+00:00</time>
      </trkpt>
      <trkpt lat="50.20922" lon="4.81993">
        <ele>98</ele>
        <time>2026-08-21T19:39:27+00:00</time>
      </trkpt>
      <trkpt lat="50.20973" lon="4.82043">
        <ele>98</ele>
        <time>2026-08-21T19:39:30+00:00</time>
      </trkpt>
      <trkpt lat="50.20998" lon="4.82063">
        <ele>98</ele>
        <time>2026-08-21T19:39:33+00:00</time>
      </trkpt>
      <trkpt lat="50.21049" lon="4.82104">
        <ele>98</ele>
        <time>2026-08-21T19:39:36+00:00</time>
      </trkpt>
      <trkpt lat="50.21075" lon="4.82126">
        <ele>100</ele>
        <time>2026-08-21T19:39:39+00:00</time>
      </trkpt>
      <trkpt lat="50.21101" lon="4.82148">
        <ele>100</ele>
        <time>2026-08-21T19:39:42+00:00</time>
      </trkpt>
      <trkpt lat="50.21133" lon="4.82175">
        <ele>99</ele>
        <time>2026-08-21T19:39:45+00:00</time>
      </trkpt>
      <trkpt lat="50.21146" lon="4.82185">
        <ele>99</ele>
        <time>2026-08-21T19:39:48+00:00</time>
      </trkpt>
      <trkpt lat="50.21164" lon="4.82201">
        <ele>98</ele>
        <time>2026-08-21T19:39:51+00:00</time>
      </trkpt>
      <trkpt lat="50.21192" lon="4.82225">
        <ele>98</ele>
        <time>2026-08-21T19:39:54+00:00</time>
      </trkpt>
      <trkpt lat="50.21223" lon="4.82252">
        <ele>98</ele>
        <time>2026-08-21T19:39:57+00:00</time>
      </trkpt>
      <trkpt lat="50.21254" lon="4.8228">
        <ele>98</ele>
        <time>2026-08-21T19:40:00+00:00</time>
      </trkpt>
      <trkpt lat="50.21284" lon="4.82307">
        <ele>98</ele>
        <time>2026-08-21T19:40:03+00:00</time>
      </trkpt>
      <trkpt lat="50.21315" lon="4.82334">
        <ele>98</ele>
        <time>2026-08-21T19:40:06+00:00</time>
      </trkpt>
      <trkpt lat="50.21364" lon="4.82378">
        <ele>98</ele>
        <time>2026-08-21T19:40:09+00:00</time>
      </trkpt>
      <trkpt lat="50.21393" lon="4.82402">
        <ele>98</ele>
        <time>2026-08-21T19:40:12+00:00</time>
      </trkpt>
      <trkpt lat="50.21405" lon="4.82417">
        <ele>98</ele>
        <time>2026-08-21T19:40:15+00:00</time>
      </trkpt>
      <trkpt lat="50.21419" lon="4.8243">
        <ele>98</ele>
        <time>2026-08-21T19:40:18+00:00</time>
      </trkpt>
      <trkpt lat="50.21436" lon="4.82446">
        <ele>98</ele>
        <time>2026-08-21T19:40:21+00:00</time>
      </trkpt>
      <trkpt lat="50.21458" lon="4.82467">
        <ele>98</ele>
        <time>2026-08-21T19:40:24+00:00</time>
      </trkpt>
      <trkpt lat="50.21489" lon="4.82498">
        <ele>98</ele>
        <time>2026-08-21T19:40:27+00:00</time>
      </trkpt>
      <trkpt lat="50.21509" lon="4.82515">
        <ele>98</ele>
        <time>2026-08-21T19:40:30+00:00</time>
      </trkpt>
      <trkpt lat="50.21531" lon="4.82533">
        <ele>98</ele>
        <time>2026-08-21T19:40:33+00:00</time>
      </trkpt>
      <trkpt lat="50.21553" lon="4.82557">
        <ele>98</ele>
        <time>2026-08-21T19:40:36+00:00</time>
      </trkpt>
      <trkpt lat="50.21579" lon="4.82592">
        <ele>98</ele>
        <time>2026-08-21T19:40:39+00:00</time>
      </trkpt>
      <trkpt lat="50.21597" lon="4.82622">
        <ele>98</ele>
        <time>2026-08-21T19:40:42+00:00</time>
      </trkpt>
      <trkpt lat="50.21618" lon="4.82662">
        <ele>98</ele>
        <time>2026-08-21T19:40:45+00:00</time>
      </trkpt>
      <trkpt lat="50.21638" lon="4.82708">
        <ele>98</ele>
        <time>2026-08-21T19:40:48+00:00</time>
      </trkpt>
      <trkpt lat="50.21654" lon="4.82757">
        <ele>98</ele>
        <time>2026-08-21T19:40:51+00:00</time>
      </trkpt>
      <trkpt lat="50.21669" lon="4.82811">
        <ele>97</ele>
        <time>2026-08-21T19:40:54+00:00</time>
      </trkpt>
      <trkpt lat="50.21679" lon="4.82849">
        <ele>97</ele>
        <time>2026-08-21T19:40:57+00:00</time>
      </trkpt>
      <trkpt lat="50.21694" lon="4.8291">
        <ele>96</ele>
        <time>2026-08-21T19:41:00+00:00</time>
      </trkpt>
      <trkpt lat="50.21702" lon="4.8295">
        <ele>96</ele>
        <time>2026-08-21T19:41:03+00:00</time>
      </trkpt>
      <trkpt lat="50.21713" lon="4.82989">
        <ele>96</ele>
        <time>2026-08-21T19:41:06+00:00</time>
      </trkpt>
      <trkpt lat="50.21713" lon="4.82992">
        <ele>96</ele>
        <time>2026-08-21T19:41:09+00:00</time>
      </trkpt>
      <trkpt lat="50.21718" lon="4.8304">
        <ele>96</ele>
        <time>2026-08-21T19:41:12+00:00</time>
      </trkpt>
      <trkpt lat="50.21722" lon="4.83075">
        <ele>96</ele>
        <time>2026-08-21T19:41:15+00:00</time>
      </trkpt>
      <trkpt lat="50.21724" lon="4.83126">
        <ele>96</ele>
        <time>2026-08-21T19:41:18+00:00</time>
      </trkpt>
      <trkpt lat="50.21725" lon="4.83161">
        <ele>96</ele>
        <time>2026-08-21T19:41:21+00:00</time>
      </trkpt>
      <trkpt lat="50.21726" lon="4.83198">
        <ele>95</ele>
        <time>2026-08-21T19:41:24+00:00</time>
      </trkpt>
      <trkpt lat="50.21726" lon="4.83241">
        <ele>95</ele>
        <time>2026-08-21T19:41:27+00:00</time>
      </trkpt>
      <trkpt lat="50.21725" lon="4.83315">
        <ele>95</ele>
        <time>2026-08-21T19:41:30+00:00</time>
      </trkpt>
      <trkpt lat="50.21723" lon="4.83358">
        <ele>95</ele>
        <time>2026-08-21T19:41:33+00:00</time>
      </trkpt>
      <trkpt lat="50.21718" lon="4.83397">
        <ele>95</ele>
        <time>2026-08-21T19:41:36+00:00</time>
      </trkpt>
      <trkpt lat="50.21711" lon="4.83443">
        <ele>95</ele>
        <time>2026-08-21T19:41:39+00:00</time>
      </trkpt>
      <trkpt lat="50.21699" lon="4.83507">
        <ele>94</ele>
        <time>2026-08-21T19:41:42+00:00</time>
      </trkpt>
      <trkpt lat="50.21694" lon="4.83543">
        <ele>94</ele>
        <time>2026-08-21T19:41:45+00:00</time>
      </trkpt>
      <trkpt lat="50.21689" lon="4.83588">
        <ele>94</ele>
        <time>2026-08-21T19:41:48+00:00</time>
      </trkpt>
      <trkpt lat="50.21683" lon="4.83647">
        <ele>94</ele>
        <time>2026-08-21T19:41:51+00:00</time>
      </trkpt>
      <trkpt lat="50.21679" lon="4.83681">
        <ele>94</ele>
        <time>2026-08-21T19:41:54+00:00</time>
      </trkpt>
      <trkpt lat="50.21674" lon="4.83716">
        <ele>94</ele>
        <time>2026-08-21T19:41:57+00:00</time>
      </trkpt>
      <trkpt lat="50.21666" lon="4.83762">
        <ele>94</ele>
        <time>2026-08-21T19:42:00+00:00</time>
      </trkpt>
      <trkpt lat="50.21658" lon="4.83801">
        <ele>94</ele>
        <time>2026-08-21T19:42:03+00:00</time>
      </trkpt>
      <trkpt lat="50.21642" lon="4.83863">
        <ele>94</ele>
        <time>2026-08-21T19:42:06+00:00</time>
      </trkpt>
      <trkpt lat="50.21633" lon="4.83895">
        <ele>94</ele>
        <time>2026-08-21T19:42:09+00:00</time>
      </trkpt>
      <trkpt lat="50.21623" lon="4.8393">
        <ele>94</ele>
        <time>2026-08-21T19:42:12+00:00</time>
      </trkpt>
      <trkpt lat="50.21611" lon="4.83964">
        <ele>94</ele>
        <time>2026-08-21T19:42:15+00:00</time>
      </trkpt>
      <trkpt lat="50.21594" lon="4.84012">
        <ele>94</ele>
        <time>2026-08-21T19:42:18+00:00</time>
      </trkpt>
      <trkpt lat="50.2158" lon="4.84047">
        <ele>94</ele>
        <time>2026-08-21T19:42:21+00:00</time>
      </trkpt>
      <trkpt lat="50.21559" lon="4.84102">
        <ele>94</ele>
        <time>2026-08-21T19:42:24+00:00</time>
      </trkpt>
      <trkpt lat="50.21544" lon="4.84135">
        <ele>94</ele>
        <time>2026-08-21T19:42:27+00:00</time>
      </trkpt>
      <trkpt lat="50.21522" lon="4.84186">
        <ele>94</ele>
        <time>2026-08-21T19:42:30+00:00</time>
      </trkpt>
      <trkpt lat="50.21508" lon="4.84214">
        <ele>94</ele>
        <time>2026-08-21T19:42:33+00:00</time>
      </trkpt>
      <trkpt lat="50.21493" lon="4.84246">
        <ele>94</ele>
        <time>2026-08-21T19:42:36+00:00</time>
      </trkpt>
      <trkpt lat="50.21477" lon="4.84274">
        <ele>94</ele>
        <time>2026-08-21T19:42:39+00:00</time>
      </trkpt>
      <trkpt lat="50.21458" lon="4.84308">
        <ele>94</ele>
        <time>2026-08-21T19:42:42+00:00</time>
      </trkpt>
      <trkpt lat="50.21444" lon="4.84335">
        <ele>94</ele>
        <time>2026-08-21T19:42:45+00:00</time>
      </trkpt>
      <trkpt lat="50.2143" lon="4.84364">
        <ele>93</ele>
        <time>2026-08-21T19:42:48+00:00</time>
      </trkpt>
      <trkpt lat="50.21415" lon="4.84396">
        <ele>93</ele>
        <time>2026-08-21T19:42:51+00:00</time>
      </trkpt>
      <trkpt lat="50.21392" lon="4.84445">
        <ele>92</ele>
        <time>2026-08-21T19:42:54+00:00</time>
      </trkpt>
      <trkpt lat="50.21367" lon="4.84488">
        <ele>92</ele>
        <time>2026-08-21T19:42:57+00:00</time>
      </trkpt>
      <trkpt lat="50.21352" lon="4.84512">
        <ele>93</ele>
        <time>2026-08-21T19:43:00+00:00</time>
      </trkpt>
      <trkpt lat="50.21336" lon="4.84536">
        <ele>93</ele>
        <time>2026-08-21T19:43:03+00:00</time>
      </trkpt>
      <trkpt lat="50.21315" lon="4.84565">
        <ele>93</ele>
        <time>2026-08-21T19:43:06+00:00</time>
      </trkpt>
      <trkpt lat="50.21276" lon="4.84621">
        <ele>93</ele>
        <time>2026-08-21T19:43:09+00:00</time>
      </trkpt>
      <trkpt lat="50.21255" lon="4.84647">
        <ele>93</ele>
        <time>2026-08-21T19:43:12+00:00</time>
      </trkpt>
      <trkpt lat="50.21221" lon="4.84691">
        <ele>93</ele>
        <time>2026-08-21T19:43:15+00:00</time>
      </trkpt>
      <trkpt lat="50.21199" lon="4.84716">
        <ele>93</ele>
        <time>2026-08-21T19:43:18+00:00</time>
      </trkpt>
      <trkpt lat="50.21162" lon="4.84757">
        <ele>94</ele>
        <time>2026-08-21T19:43:21+00:00</time>
      </trkpt>
      <trkpt lat="50.21137" lon="4.84782">
        <ele>94</ele>
        <time>2026-08-21T19:43:24+00:00</time>
      </trkpt>
      <trkpt lat="50.21111" lon="4.84807">
        <ele>94</ele>
        <time>2026-08-21T19:43:27+00:00</time>
      </trkpt>
      <trkpt lat="50.21079" lon="4.8484">
        <ele>93</ele>
        <time>2026-08-21T19:43:30+00:00</time>
      </trkpt>
      <trkpt lat="50.21055" lon="4.8486">
        <ele>93</ele>
        <time>2026-08-21T19:43:33+00:00</time>
      </trkpt>
      <trkpt lat="50.21015" lon="4.84893">
        <ele>93</ele>
        <time>2026-08-21T19:43:36+00:00</time>
      </trkpt>
      <trkpt lat="50.20993" lon="4.8491">
        <ele>93</ele>
        <time>2026-08-21T19:43:39+00:00</time>
      </trkpt>
      <trkpt lat="50.20966" lon="4.84931">
        <ele>93</ele>
        <time>2026-08-21T19:43:42+00:00</time>
      </trkpt>
      <trkpt lat="50.20927" lon="4.84958">
        <ele>93</ele>
        <time>2026-08-21T19:43:45+00:00</time>
      </trkpt>
      <trkpt lat="50.20899" lon="4.84975">
        <ele>93</ele>
        <time>2026-08-21T19:43:48+00:00</time>
      </trkpt>
      <trkpt lat="50.20871" lon="4.84992">
        <ele>94</ele>
        <time>2026-08-21T19:43:51+00:00</time>
      </trkpt>
      <trkpt lat="50.20834" lon="4.85014">
        <ele>94</ele>
        <time>2026-08-21T19:43:54+00:00</time>
      </trkpt>
      <trkpt lat="50.20803" lon="4.8503">
        <ele>93</ele>
        <time>2026-08-21T19:43:57+00:00</time>
      </trkpt>
      <trkpt lat="50.20782" lon="4.85038">
        <ele>93</ele>
        <time>2026-08-21T19:44:00+00:00</time>
      </trkpt>
      <trkpt lat="50.2076" lon="4.85048">
        <ele>93</ele>
        <time>2026-08-21T19:44:03+00:00</time>
      </trkpt>
      <trkpt lat="50.20737" lon="4.85058">
        <ele>93</ele>
        <time>2026-08-21T19:44:06+00:00</time>
      </trkpt>
      <trkpt lat="50.20702" lon="4.85076">
        <ele>94</ele>
        <time>2026-08-21T19:44:09+00:00</time>
      </trkpt>
      <trkpt lat="50.20667" lon="4.85093">
        <ele>94</ele>
        <time>2026-08-21T19:44:12+00:00</time>
      </trkpt>
      <trkpt lat="50.20633" lon="4.85111">
        <ele>94</ele>
        <time>2026-08-21T19:44:15+00:00</time>
      </trkpt>
      <trkpt lat="50.20598" lon="4.85128">
        <ele>93</ele>
        <time>2026-08-21T19:44:18+00:00</time>
      </trkpt>
      <trkpt lat="50.20563" lon="4.85146">
        <ele>93</ele>
        <time>2026-08-21T19:44:21+00:00</time>
      </trkpt>
      <trkpt lat="50.20509" lon="4.85173">
        <ele>93</ele>
        <time>2026-08-21T19:44:24+00:00</time>
      </trkpt>
      <trkpt lat="50.20481" lon="4.85192">
        <ele>93</ele>
        <time>2026-08-21T19:44:27+00:00</time>
      </trkpt>
      <trkpt lat="50.20454" lon="4.85211">
        <ele>93</ele>
        <time>2026-08-21T19:44:30+00:00</time>
      </trkpt>
      <trkpt lat="50.20417" lon="4.85236">
        <ele>93</ele>
        <time>2026-08-21T19:44:33+00:00</time>
      </trkpt>
      <trkpt lat="50.20392" lon="4.85259">
        <ele>93</ele>
        <time>2026-08-21T19:44:36+00:00</time>
      </trkpt>
      <trkpt lat="50.20366" lon="4.85283">
        <ele>93</ele>
        <time>2026-08-21T19:44:39+00:00</time>
      </trkpt>
      <trkpt lat="50.20337" lon="4.8531">
        <ele>93</ele>
        <time>2026-08-21T19:44:42+00:00</time>
      </trkpt>
      <trkpt lat="50.20317" lon="4.85333">
        <ele>94</ele>
        <time>2026-08-21T19:44:45+00:00</time>
      </trkpt>
      <trkpt lat="50.2029" lon="4.85365">
        <ele>94</ele>
        <time>2026-08-21T19:44:48+00:00</time>
      </trkpt>
      <trkpt lat="50.20262" lon="4.854">
        <ele>94</ele>
        <time>2026-08-21T19:44:51+00:00</time>
      </trkpt>
      <trkpt lat="50.20243" lon="4.85429">
        <ele>93</ele>
        <time>2026-08-21T19:44:54+00:00</time>
      </trkpt>
      <trkpt lat="50.20214" lon="4.85473">
        <ele>93</ele>
        <time>2026-08-21T19:44:57+00:00</time>
      </trkpt>
      <trkpt lat="50.20193" lon="4.85512">
        <ele>93</ele>
        <time>2026-08-21T19:45:00+00:00</time>
      </trkpt>
      <trkpt lat="50.20172" lon="4.85551">
        <ele>93</ele>
        <time>2026-08-21T19:45:03+00:00</time>
      </trkpt>
      <trkpt lat="50.20151" lon="4.8559">
        <ele>93</ele>
        <time>2026-08-21T19:45:06+00:00</time>
      </trkpt>
      <trkpt lat="50.20128" lon="4.85632">
        <ele>93</ele>
        <time>2026-08-21T19:45:09+00:00</time>
      </trkpt>
      <trkpt lat="50.20109" lon="4.85677">
        <ele>93</ele>
        <time>2026-08-21T19:45:12+00:00</time>
      </trkpt>
      <trkpt lat="50.20095" lon="4.85715">
        <ele>93</ele>
        <time>2026-08-21T19:45:15+00:00</time>
      </trkpt>
      <trkpt lat="50.20071" lon="4.85783">
        <ele>94</ele>
        <time>2026-08-21T19:45:18+00:00</time>
      </trkpt>
      <trkpt lat="50.20064" lon="4.85807">
        <ele>93</ele>
        <time>2026-08-21T19:45:21+00:00</time>
      </trkpt>
      <trkpt lat="50.20061" lon="4.85827">
        <ele>93</ele>
        <time>2026-08-21T19:45:24+00:00</time>
      </trkpt>
      <trkpt lat="50.20058" lon="4.85848">
        <ele>93</ele>
        <time>2026-08-21T19:45:27+00:00</time>
      </trkpt>
      <trkpt lat="50.20054" lon="4.85887">
        <ele>94</ele>
        <time>2026-08-21T19:45:30+00:00</time>
      </trkpt>
      <trkpt lat="50.20054" lon="4.85941">
        <ele>95</ele>
        <time>2026-08-21T19:45:33+00:00</time>
      </trkpt>
      <trkpt lat="50.20056" lon="4.85979">
        <ele>95</ele>
        <time>2026-08-21T19:45:36+00:00</time>
      </trkpt>
      <trkpt lat="50.2006" lon="4.86023">
        <ele>97</ele>
        <time>2026-08-21T19:45:39+00:00</time>
      </trkpt>
      <trkpt lat="50.20064" lon="4.86062">
        <ele>97</ele>
        <time>2026-08-21T19:45:42+00:00</time>
      </trkpt>
      <trkpt lat="50.2007" lon="4.8612">
        <ele>97</ele>
        <time>2026-08-21T19:45:45+00:00</time>
      </trkpt>
      <trkpt lat="50.20077" lon="4.86178">
        <ele>97</ele>
        <time>2026-08-21T19:45:48+00:00</time>
      </trkpt>
      <trkpt lat="50.20083" lon="4.86223">
        <ele>97</ele>
        <time>2026-08-21T19:45:51+00:00</time>
      </trkpt>
      <trkpt lat="50.20087" lon="4.86242">
        <ele>96</ele>
        <time>2026-08-21T19:45:54+00:00</time>
      </trkpt>
      <trkpt lat="50.2009" lon="4.86259">
        <ele>96</ele>
        <time>2026-08-21T19:45:57+00:00</time>
      </trkpt>
      <trkpt lat="50.20099" lon="4.86292">
        <ele>95</ele>
        <time>2026-08-21T19:46:00+00:00</time>
      </trkpt>
      <trkpt lat="50.2011" lon="4.86324">
        <ele>95</ele>
        <time>2026-08-21T19:46:03+00:00</time>
      </trkpt>
      <trkpt lat="50.20122" lon="4.86354">
        <ele>96</ele>
        <time>2026-08-21T19:46:06+00:00</time>
      </trkpt>
      <trkpt lat="50.20136" lon="4.86379">
        <ele>96</ele>
        <time>2026-08-21T19:46:09+00:00</time>
      </trkpt>
      <trkpt lat="50.20157" lon="4.86413">
        <ele>96</ele>
        <time>2026-08-21T19:46:12+00:00</time>
      </trkpt>
      <trkpt lat="50.20174" lon="4.86435">
        <ele>98</ele>
        <time>2026-08-21T19:46:15+00:00</time>
      </trkpt>
      <trkpt lat="50.20191" lon="4.86458">
        <ele>97</ele>
        <time>2026-08-21T19:46:18+00:00</time>
      </trkpt>
      <trkpt lat="50.20208" lon="4.86479">
        <ele>97</ele>
        <time>2026-08-21T19:46:21+00:00</time>
      </trkpt>
      <trkpt lat="50.20226" lon="4.86502">
        <ele>95</ele>
        <time>2026-08-21T19:46:24+00:00</time>
      </trkpt>
      <trkpt lat="50.20244" lon="4.86522">
        <ele>94</ele>
        <time>2026-08-21T19:46:27+00:00</time>
      </trkpt>
      <trkpt lat="50.20273" lon="4.86552">
        <ele>94</ele>
        <time>2026-08-21T19:46:30+00:00</time>
      </trkpt>
      <trkpt lat="50.20287" lon="4.86564">
        <ele>94</ele>
        <time>2026-08-21T19:46:33+00:00</time>
      </trkpt>
      <trkpt lat="50.20301" lon="4.86577">
        <ele>94</ele>
        <time>2026-08-21T19:46:36+00:00</time>
      </trkpt>
      <trkpt lat="50.20317" lon="4.86592">
        <ele>94</ele>
        <time>2026-08-21T19:46:39+00:00</time>
      </trkpt>
      <trkpt lat="50.2034" lon="4.8661">
        <ele>94</ele>
        <time>2026-08-21T19:46:42+00:00</time>
      </trkpt>
      <trkpt lat="50.20375" lon="4.86638">
        <ele>93</ele>
        <time>2026-08-21T19:46:45+00:00</time>
      </trkpt>
      <trkpt lat="50.20399" lon="4.86656">
        <ele>93</ele>
        <time>2026-08-21T19:46:48+00:00</time>
      </trkpt>
      <trkpt lat="50.20437" lon="4.86686">
        <ele>94</ele>
        <time>2026-08-21T19:46:51+00:00</time>
      </trkpt>
      <trkpt lat="50.20456" lon="4.86697">
        <ele>94</ele>
        <time>2026-08-21T19:46:54+00:00</time>
      </trkpt>
      <trkpt lat="50.20477" lon="4.86706">
        <ele>94</ele>
        <time>2026-08-21T19:46:57+00:00</time>
      </trkpt>
      <trkpt lat="50.20498" lon="4.86715">
        <ele>94</ele>
        <time>2026-08-21T19:47:00+00:00</time>
      </trkpt>
      <trkpt lat="50.20524" lon="4.86725">
        <ele>94</ele>
        <time>2026-08-21T19:47:03+00:00</time>
      </trkpt>
      <trkpt lat="50.20562" lon="4.86737">
        <ele>94</ele>
        <time>2026-08-21T19:47:06+00:00</time>
      </trkpt>
      <trkpt lat="50.20598" lon="4.8675">
        <ele>94</ele>
        <time>2026-08-21T19:47:09+00:00</time>
      </trkpt>
      <trkpt lat="50.20634" lon="4.86763">
        <ele>94</ele>
        <time>2026-08-21T19:47:12+00:00</time>
      </trkpt>
      <trkpt lat="50.20671" lon="4.86776">
        <ele>94</ele>
        <time>2026-08-21T19:47:15+00:00</time>
      </trkpt>
      <trkpt lat="50.20707" lon="4.86789">
        <ele>94</ele>
        <time>2026-08-21T19:47:18+00:00</time>
      </trkpt>
      <trkpt lat="50.20743" lon="4.86802">
        <ele>94</ele>
        <time>2026-08-21T19:47:21+00:00</time>
      </trkpt>
      <trkpt lat="50.20779" lon="4.86815">
        <ele>94</ele>
        <time>2026-08-21T19:47:24+00:00</time>
      </trkpt>
      <trkpt lat="50.20822" lon="4.8683">
        <ele>94</ele>
        <time>2026-08-21T19:47:27+00:00</time>
      </trkpt>
      <trkpt lat="50.20853" lon="4.86836">
        <ele>94</ele>
        <time>2026-08-21T19:47:30+00:00</time>
      </trkpt>
      <trkpt lat="50.20884" lon="4.86843">
        <ele>94</ele>
        <time>2026-08-21T19:47:33+00:00</time>
      </trkpt>
      <trkpt lat="50.20936" lon="4.86853">
        <ele>94</ele>
        <time>2026-08-21T19:47:36+00:00</time>
      </trkpt>
      <trkpt lat="50.20961" lon="4.86859">
        <ele>95</ele>
        <time>2026-08-21T19:47:39+00:00</time>
      </trkpt>
      <trkpt lat="50.20994" lon="4.86868">
        <ele>95</ele>
        <time>2026-08-21T19:47:42+00:00</time>
      </trkpt>
      <trkpt lat="50.21019" lon="4.86875">
        <ele>95</ele>
        <time>2026-08-21T19:47:45+00:00</time>
      </trkpt>
      <trkpt lat="50.21053" lon="4.86885">
        <ele>95</ele>
        <time>2026-08-21T19:47:48+00:00</time>
      </trkpt>
      <trkpt lat="50.21075" lon="4.86893">
        <ele>95</ele>
        <time>2026-08-21T19:47:51+00:00</time>
      </trkpt>
      <trkpt lat="50.21099" lon="4.86902">
        <ele>95</ele>
        <time>2026-08-21T19:47:54+00:00</time>
      </trkpt>
      <trkpt lat="50.2113" lon="4.86917">
        <ele>95</ele>
        <time>2026-08-21T19:47:57+00:00</time>
      </trkpt>
      <trkpt lat="50.21162" lon="4.86931">
        <ele>94</ele>
        <time>2026-08-21T19:48:00+00:00</time>
      </trkpt>
      <trkpt lat="50.21193" lon="4.86946">
        <ele>94</ele>
        <time>2026-08-21T19:48:03+00:00</time>
      </trkpt>
      <trkpt lat="50.21231" lon="4.86963">
        <ele>94</ele>
        <time>2026-08-21T19:48:06+00:00</time>
      </trkpt>
      <trkpt lat="50.21256" lon="4.86973">
        <ele>94</ele>
        <time>2026-08-21T19:48:09+00:00</time>
      </trkpt>
      <trkpt lat="50.21296" lon="4.8699">
        <ele>94</ele>
        <time>2026-08-21T19:48:12+00:00</time>
      </trkpt>
      <trkpt lat="50.21326" lon="4.87004">
        <ele>94</ele>
        <time>2026-08-21T19:48:15+00:00</time>
      </trkpt>
      <trkpt lat="50.21357" lon="4.87018">
        <ele>95</ele>
        <time>2026-08-21T19:48:18+00:00</time>
      </trkpt>
      <trkpt lat="50.2141" lon="4.87042">
        <ele>96</ele>
        <time>2026-08-21T19:48:21+00:00</time>
      </trkpt>
      <trkpt lat="50.21434" lon="4.87059">
        <ele>99</ele>
        <time>2026-08-21T19:48:24+00:00</time>
      </trkpt>
      <trkpt lat="50.21472" lon="4.87085">
        <ele>99</ele>
        <time>2026-08-21T19:48:27+00:00</time>
      </trkpt>
      <trkpt lat="50.21503" lon="4.87109">
        <ele>96</ele>
        <time>2026-08-21T19:48:30+00:00</time>
      </trkpt>
      <trkpt lat="50.21529" lon="4.87134">
        <ele>98</ele>
        <time>2026-08-21T19:48:33+00:00</time>
      </trkpt>
      <trkpt lat="50.21545" lon="4.87156">
        <ele>100</ele>
        <time>2026-08-21T19:48:36+00:00</time>
      </trkpt>
      <trkpt lat="50.21562" lon="4.87179">
        <ele>100</ele>
        <time>2026-08-21T19:48:39+00:00</time>
      </trkpt>
      <trkpt lat="50.21588" lon="4.87222">
        <ele>99</ele>
        <time>2026-08-21T19:48:42+00:00</time>
      </trkpt>
      <trkpt lat="50.21612" lon="4.87265">
        <ele>99</ele>
        <time>2026-08-21T19:48:45+00:00</time>
      </trkpt>
      <trkpt lat="50.21633" lon="4.87306">
        <ele>97</ele>
        <time>2026-08-21T19:48:48+00:00</time>
      </trkpt>
      <trkpt lat="50.21646" lon="4.87337">
        <ele>97</ele>
        <time>2026-08-21T19:48:51+00:00</time>
      </trkpt>
      <trkpt lat="50.21662" lon="4.87377">
        <ele>97</ele>
        <time>2026-08-21T19:48:54+00:00</time>
      </trkpt>
      <trkpt lat="50.21674" lon="4.8741">
        <ele>96</ele>
        <time>2026-08-21T19:48:57+00:00</time>
      </trkpt>
      <trkpt lat="50.2169" lon="4.87452">
        <ele>96</ele>
        <time>2026-08-21T19:49:00+00:00</time>
      </trkpt>
      <trkpt lat="50.21701" lon="4.87484">
        <ele>95</ele>
        <time>2026-08-21T19:49:03+00:00</time>
      </trkpt>
      <trkpt lat="50.21715" lon="4.87523">
        <ele>95</ele>
        <time>2026-08-21T19:49:06+00:00</time>
      </trkpt>
      <trkpt lat="50.21724" lon="4.87556">
        <ele>95</ele>
        <time>2026-08-21T19:49:09+00:00</time>
      </trkpt>
      <trkpt lat="50.21733" lon="4.87592">
        <ele>95</ele>
        <time>2026-08-21T19:49:12+00:00</time>
      </trkpt>
      <trkpt lat="50.21745" lon="4.87655">
        <ele>94</ele>
        <time>2026-08-21T19:49:15+00:00</time>
      </trkpt>
      <trkpt lat="50.21752" lon="4.87719">
        <ele>94</ele>
        <time>2026-08-21T19:49:18+00:00</time>
      </trkpt>
      <trkpt lat="50.21757" lon="4.87774">
        <ele>94</ele>
        <time>2026-08-21T19:49:21+00:00</time>
      </trkpt>
      <trkpt lat="50.21762" lon="4.87829">
        <ele>94</ele>
        <time>2026-08-21T19:49:24+00:00</time>
      </trkpt>
      <trkpt lat="50.21767" lon="4.87884">
        <ele>94</ele>
        <time>2026-08-21T19:49:27+00:00</time>
      </trkpt>
      <trkpt lat="50.21772" lon="4.87939">
        <ele>94</ele>
        <time>2026-08-21T19:49:30+00:00</time>
      </trkpt>
      <trkpt lat="50.2178" lon="4.88035">
        <ele>94</ele>
        <time>2026-08-21T19:49:33+00:00</time>
      </trkpt>
      <trkpt lat="50.21784" lon="4.88082">
        <ele>93</ele>
        <time>2026-08-21T19:49:36+00:00</time>
      </trkpt>
      <trkpt lat="50.21788" lon="4.8813">
        <ele>92</ele>
        <time>2026-08-21T19:49:39+00:00</time>
      </trkpt>
      <trkpt lat="50.21794" lon="4.88198">
        <ele>92</ele>
        <time>2026-08-21T19:49:42+00:00</time>
      </trkpt>
      <trkpt lat="50.21798" lon="4.88262">
        <ele>92</ele>
        <time>2026-08-21T19:49:45+00:00</time>
      </trkpt>
      <trkpt lat="50.21803" lon="4.88306">
        <ele>93</ele>
        <time>2026-08-21T19:49:48+00:00</time>
      </trkpt>
      <trkpt lat="50.21812" lon="4.88389">
        <ele>93</ele>
        <time>2026-08-21T19:49:51+00:00</time>
      </trkpt>
      <trkpt lat="50.21817" lon="4.88433">
        <ele>93</ele>
        <time>2026-08-21T19:49:54+00:00</time>
      </trkpt>
      <trkpt lat="50.21828" lon="4.88518">
        <ele>93</ele>
        <time>2026-08-21T19:49:57+00:00</time>
      </trkpt>
      <trkpt lat="50.21835" lon="4.8856">
        <ele>93</ele>
        <time>2026-08-21T19:50:00+00:00</time>
      </trkpt>
      <trkpt lat="50.21846" lon="4.8861">
        <ele>92</ele>
        <time>2026-08-21T19:50:03+00:00</time>
      </trkpt>
      <trkpt lat="50.21856" lon="4.88641">
        <ele>92</ele>
        <time>2026-08-21T19:50:06+00:00</time>
      </trkpt>
      <trkpt lat="50.21866" lon="4.88673">
        <ele>92</ele>
        <time>2026-08-21T19:50:09+00:00</time>
      </trkpt>
      <trkpt lat="50.21879" lon="4.88703">
        <ele>92</ele>
        <time>2026-08-21T19:50:12+00:00</time>
      </trkpt>
      <trkpt lat="50.21895" lon="4.88739">
        <ele>92</ele>
        <time>2026-08-21T19:50:15+00:00</time>
      </trkpt>
      <trkpt lat="50.21921" lon="4.88786">
        <ele>92</ele>
        <time>2026-08-21T19:50:18+00:00</time>
      </trkpt>
      <trkpt lat="50.21942" lon="4.88818">
        <ele>92</ele>
        <time>2026-08-21T19:50:21+00:00</time>
      </trkpt>
      <trkpt lat="50.21962" lon="4.8885">
        <ele>92</ele>
        <time>2026-08-21T19:50:24+00:00</time>
      </trkpt>
      <trkpt lat="50.21984" lon="4.88883">
        <ele>92</ele>
        <time>2026-08-21T19:50:27+00:00</time>
      </trkpt>
      <trkpt lat="50.22003" lon="4.88915">
        <ele>91</ele>
        <time>2026-08-21T19:50:30+00:00</time>
      </trkpt>
      <trkpt lat="50.22039" lon="4.88975">
        <ele>91</ele>
        <time>2026-08-21T19:50:33+00:00</time>
      </trkpt>
      <trkpt lat="50.22059" lon="4.89003">
        <ele>91</ele>
        <time>2026-08-21T19:50:36+00:00</time>
      </trkpt>
      <trkpt lat="50.22092" lon="4.89051">
        <ele>91</ele>
        <time>2026-08-21T19:50:39+00:00</time>
      </trkpt>
      <trkpt lat="50.22112" lon="4.89075">
        <ele>91</ele>
        <time>2026-08-21T19:50:42+00:00</time>
      </trkpt>
      <trkpt lat="50.22133" lon="4.89097">
        <ele>91</ele>
        <time>2026-08-21T19:50:45+00:00</time>
      </trkpt>
      <trkpt lat="50.22159" lon="4.89119">
        <ele>93</ele>
        <time>2026-08-21T19:50:48+00:00</time>
      </trkpt>
      <trkpt lat="50.22184" lon="4.89137">
        <ele>93</ele>
        <time>2026-08-21T19:50:51+00:00</time>
      </trkpt>
      <trkpt lat="50.22217" lon="4.89155">
        <ele>93</ele>
        <time>2026-08-21T19:50:54+00:00</time>
      </trkpt>
      <trkpt lat="50.22251" lon="4.8917">
        <ele>93</ele>
        <time>2026-08-21T19:50:57+00:00</time>
      </trkpt>
      <trkpt lat="50.22293" lon="4.89178">
        <ele>94</ele>
        <time>2026-08-21T19:51:00+00:00</time>
      </trkpt>
      <trkpt lat="50.22335" lon="4.89179">
        <ele>95</ele>
        <time>2026-08-21T19:51:03+00:00</time>
      </trkpt>
      <trkpt lat="50.22356" lon="4.89174">
        <ele>95</ele>
        <time>2026-08-21T19:51:06+00:00</time>
      </trkpt>
      <trkpt lat="50.22378" lon="4.8917">
        <ele>94</ele>
        <time>2026-08-21T19:51:09+00:00</time>
      </trkpt>
      <trkpt lat="50.22404" lon="4.89151">
        <ele>94</ele>
        <time>2026-08-21T19:51:12+00:00</time>
      </trkpt>
      <trkpt lat="50.22424" lon="4.89131">
        <ele>94</ele>
        <time>2026-08-21T19:51:15+00:00</time>
      </trkpt>
      <trkpt lat="50.22447" lon="4.89106">
        <ele>94</ele>
        <time>2026-08-21T19:51:18+00:00</time>
      </trkpt>
      <trkpt lat="50.22468" lon="4.89081">
        <ele>94</ele>
        <time>2026-08-21T19:51:21+00:00</time>
      </trkpt>
      <trkpt lat="50.22501" lon="4.89042">
        <ele>94</ele>
        <time>2026-08-21T19:51:24+00:00</time>
      </trkpt>
      <trkpt lat="50.22524" lon="4.89021">
        <ele>94</ele>
        <time>2026-08-21T19:51:27+00:00</time>
      </trkpt>
      <trkpt lat="50.22544" lon="4.89005">
        <ele>94</ele>
        <time>2026-08-21T19:51:30+00:00</time>
      </trkpt>
      <trkpt lat="50.22579" lon="4.88982">
        <ele>94</ele>
        <time>2026-08-21T19:51:33+00:00</time>
      </trkpt>
      <trkpt lat="50.22614" lon="4.8896">
        <ele>93</ele>
        <time>2026-08-21T19:51:36+00:00</time>
      </trkpt>
      <trkpt lat="50.22648" lon="4.88937">
        <ele>93</ele>
        <time>2026-08-21T19:51:39+00:00</time>
      </trkpt>
      <trkpt lat="50.22683" lon="4.88915">
        <ele>91</ele>
        <time>2026-08-21T19:51:42+00:00</time>
      </trkpt>
      <trkpt lat="50.22718" lon="4.88892">
        <ele>91</ele>
        <time>2026-08-21T19:51:45+00:00</time>
      </trkpt>
      <trkpt lat="50.22753" lon="4.8887">
        <ele>91</ele>
        <time>2026-08-21T19:51:48+00:00</time>
      </trkpt>
      <trkpt lat="50.2282" lon="4.88826">
        <ele>91</ele>
        <time>2026-08-21T19:51:51+00:00</time>
      </trkpt>
      <trkpt lat="50.22843" lon="4.88812">
        <ele>91</ele>
        <time>2026-08-21T19:51:54+00:00</time>
      </trkpt>
      <trkpt lat="50.22873" lon="4.88793">
        <ele>91</ele>
        <time>2026-08-21T19:51:57+00:00</time>
      </trkpt>
      <trkpt lat="50.22896" lon="4.8878">
        <ele>91</ele>
        <time>2026-08-21T19:52:00+00:00</time>
      </trkpt>
      <trkpt lat="50.22923" lon="4.8877">
        <ele>91</ele>
        <time>2026-08-21T19:52:03+00:00</time>
      </trkpt>
      <trkpt lat="50.22956" lon="4.88762">
        <ele>91</ele>
        <time>2026-08-21T19:52:06+00:00</time>
      </trkpt>
      <trkpt lat="50.22984" lon="4.88756">
        <ele>91</ele>
        <time>2026-08-21T19:52:09+00:00</time>
      </trkpt>
      <trkpt lat="50.2304" lon="4.88744">
        <ele>91</ele>
        <time>2026-08-21T19:52:12+00:00</time>
      </trkpt>
      <trkpt lat="50.23071" lon="4.8874">
        <ele>91</ele>
        <time>2026-08-21T19:52:15+00:00</time>
      </trkpt>
      <trkpt lat="50.23103" lon="4.88735">
        <ele>91</ele>
        <time>2026-08-21T19:52:18+00:00</time>
      </trkpt>
      <trkpt lat="50.23158" lon="4.88728">
        <ele>91</ele>
        <time>2026-08-21T19:52:21+00:00</time>
      </trkpt>
      <trkpt lat="50.23182" lon="4.88727">
        <ele>91</ele>
        <time>2026-08-21T19:52:24+00:00</time>
      </trkpt>
      <trkpt lat="50.23214" lon="4.88726">
        <ele>91</ele>
        <time>2026-08-21T19:52:27+00:00</time>
      </trkpt>
      <trkpt lat="50.23243" lon="4.8873">
        <ele>92</ele>
        <time>2026-08-21T19:52:30+00:00</time>
      </trkpt>
      <trkpt lat="50.23299" lon="4.88737">
        <ele>92</ele>
        <time>2026-08-21T19:52:33+00:00</time>
      </trkpt>
      <trkpt lat="50.23326" lon="4.88736">
        <ele>91</ele>
        <time>2026-08-21T19:52:36+00:00</time>
      </trkpt>
      <trkpt lat="50.23371" lon="4.88735">
        <ele>91</ele>
        <time>2026-08-21T19:52:39+00:00</time>
      </trkpt>
      <trkpt lat="50.23398" lon="4.88735">
        <ele>91</ele>
        <time>2026-08-21T19:52:42+00:00</time>
      </trkpt>
      <trkpt lat="50.23444" lon="4.88736">
        <ele>91</ele>
        <time>2026-08-21T19:52:45+00:00</time>
      </trkpt>
      <trkpt lat="50.23471" lon="4.88742">
        <ele>91</ele>
        <time>2026-08-21T19:52:48+00:00</time>
      </trkpt>
      <trkpt lat="50.23519" lon="4.88754">
        <ele>91</ele>
        <time>2026-08-21T19:52:51+00:00</time>
      </trkpt>
      <trkpt lat="50.23546" lon="4.88762">
        <ele>91</ele>
        <time>2026-08-21T19:52:54+00:00</time>
      </trkpt>
      <trkpt lat="50.23596" lon="4.88777">
        <ele>91</ele>
        <time>2026-08-21T19:52:57+00:00</time>
      </trkpt>
      <trkpt lat="50.23619" lon="4.88785">
        <ele>91</ele>
        <time>2026-08-21T19:53:00+00:00</time>
      </trkpt>
      <trkpt lat="50.23649" lon="4.88795">
        <ele>91</ele>
        <time>2026-08-21T19:53:03+00:00</time>
      </trkpt>
      <trkpt lat="50.23671" lon="4.88801">
        <ele>91</ele>
        <time>2026-08-21T19:53:06+00:00</time>
      </trkpt>
      <trkpt lat="50.23694" lon="4.88807">
        <ele>91</ele>
        <time>2026-08-21T19:53:09+00:00</time>
      </trkpt>
      <trkpt lat="50.23716" lon="4.8881">
        <ele>91</ele>
        <time>2026-08-21T19:53:12+00:00</time>
      </trkpt>
      <trkpt lat="50.23739" lon="4.88813">
        <ele>91</ele>
        <time>2026-08-21T19:53:15+00:00</time>
      </trkpt>
      <trkpt lat="50.23761" lon="4.88813">
        <ele>91</ele>
        <time>2026-08-21T19:53:18+00:00</time>
      </trkpt>
      <trkpt lat="50.23785" lon="4.88813">
        <ele>91</ele>
        <time>2026-08-21T19:53:21+00:00</time>
      </trkpt>
      <trkpt lat="50.23813" lon="4.88812">
        <ele>91</ele>
        <time>2026-08-21T19:53:24+00:00</time>
      </trkpt>
      <trkpt lat="50.23868" lon="4.88809">
        <ele>91</ele>
        <time>2026-08-21T19:53:27+00:00</time>
      </trkpt>
      <trkpt lat="50.23886" lon="4.88813">
        <ele>91</ele>
        <time>2026-08-21T19:53:30+00:00</time>
      </trkpt>
      <trkpt lat="50.23902" lon="4.88819">
        <ele>97</ele>
        <time>2026-08-21T19:53:33+00:00</time>
      </trkpt>
      <trkpt lat="50.23917" lon="4.88835">
        <ele>92</ele>
        <time>2026-08-21T19:53:36+00:00</time>
      </trkpt>
      <trkpt lat="50.23938" lon="4.88858">
        <ele>92</ele>
        <time>2026-08-21T19:53:39+00:00</time>
      </trkpt>
      <trkpt lat="50.23955" lon="4.8888">
        <ele>92</ele>
        <time>2026-08-21T19:53:42+00:00</time>
      </trkpt>
      <trkpt lat="50.23971" lon="4.88903">
        <ele>93</ele>
        <time>2026-08-21T19:53:45+00:00</time>
      </trkpt>
      <trkpt lat="50.23991" lon="4.88938">
        <ele>94</ele>
        <time>2026-08-21T19:53:48+00:00</time>
      </trkpt>
      <trkpt lat="50.24011" lon="4.88974">
        <ele>92</ele>
        <time>2026-08-21T19:53:51+00:00</time>
      </trkpt>
      <trkpt lat="50.24038" lon="4.89021">
        <ele>91</ele>
        <time>2026-08-21T19:53:54+00:00</time>
      </trkpt>
      <trkpt lat="50.24055" lon="4.8906">
        <ele>91</ele>
        <time>2026-08-21T19:53:57+00:00</time>
      </trkpt>
      <trkpt lat="50.24072" lon="4.89099">
        <ele>91</ele>
        <time>2026-08-21T19:54:00+00:00</time>
      </trkpt>
      <trkpt lat="50.24094" lon="4.89152">
        <ele>92</ele>
        <time>2026-08-21T19:54:03+00:00</time>
      </trkpt>
      <trkpt lat="50.2411" lon="4.89191">
        <ele>93</ele>
        <time>2026-08-21T19:54:06+00:00</time>
      </trkpt>
      <trkpt lat="50.24121" lon="4.89225">
        <ele>93</ele>
        <time>2026-08-21T19:54:09+00:00</time>
      </trkpt>
      <trkpt lat="50.24134" lon="4.89267">
        <ele>93</ele>
        <time>2026-08-21T19:54:12+00:00</time>
      </trkpt>
      <trkpt lat="50.24144" lon="4.89295">
        <ele>93</ele>
        <time>2026-08-21T19:54:15+00:00</time>
      </trkpt>
      <trkpt lat="50.24161" lon="4.89341">
        <ele>93</ele>
        <time>2026-08-21T19:54:18+00:00</time>
      </trkpt>
      <trkpt lat="50.24178" lon="4.89386">
        <ele>92</ele>
        <time>2026-08-21T19:54:21+00:00</time>
      </trkpt>
      <trkpt lat="50.24196" lon="4.89432">
        <ele>92</ele>
        <time>2026-08-21T19:54:24+00:00</time>
      </trkpt>
      <trkpt lat="50.24225" lon="4.8951">
        <ele>92</ele>
        <time>2026-08-21T19:54:27+00:00</time>
      </trkpt>
      <trkpt lat="50.2423" lon="4.89533">
        <ele>93</ele>
        <time>2026-08-21T19:54:30+00:00</time>
      </trkpt>
      <trkpt lat="50.24233" lon="4.89556">
        <ele>92</ele>
        <time>2026-08-21T19:54:33+00:00</time>
      </trkpt>
      <trkpt lat="50.24237" lon="4.89582">
        <ele>92</ele>
        <time>2026-08-21T19:54:36+00:00</time>
      </trkpt>
      <trkpt lat="50.24243" lon="4.89638">
        <ele>92</ele>
        <time>2026-08-21T19:54:39+00:00</time>
      </trkpt>
      <trkpt lat="50.24244" lon="4.89675">
        <ele>92</ele>
        <time>2026-08-21T19:54:42+00:00</time>
      </trkpt>
      <trkpt lat="50.24246" lon="4.89721">
        <ele>92</ele>
        <time>2026-08-21T19:54:45+00:00</time>
      </trkpt>
      <trkpt lat="50.24244" lon="4.89765">
        <ele>92</ele>
        <time>2026-08-21T19:54:48+00:00</time>
      </trkpt>
      <trkpt lat="50.24241" lon="4.89812">
        <ele>93</ele>
        <time>2026-08-21T19:54:51+00:00</time>
      </trkpt>
      <trkpt lat="50.24233" lon="4.89873">
        <ele>93</ele>
        <time>2026-08-21T19:54:54+00:00</time>
      </trkpt>
      <trkpt lat="50.24225" lon="4.89922">
        <ele>93</ele>
        <time>2026-08-21T19:54:57+00:00</time>
      </trkpt>
      <trkpt lat="50.24213" lon="4.89965">
        <ele>96</ele>
        <time>2026-08-21T19:55:00+00:00</time>
      </trkpt>
      <trkpt lat="50.24196" lon="4.89996">
        <ele>98</ele>
        <time>2026-08-21T19:55:03+00:00</time>
      </trkpt>
      <trkpt lat="50.24181" lon="4.90016">
        <ele>95</ele>
        <time>2026-08-21T19:55:06+00:00</time>
      </trkpt>
      <trkpt lat="50.24169" lon="4.90042">
        <ele>92</ele>
        <time>2026-08-21T19:55:09+00:00</time>
      </trkpt>
      <trkpt lat="50.24154" lon="4.90099">
        <ele>92</ele>
        <time>2026-08-21T19:55:12+00:00</time>
      </trkpt>
      <trkpt lat="50.24141" lon="4.90139">
        <ele>92</ele>
        <time>2026-08-21T19:55:15+00:00</time>
      </trkpt>
      <trkpt lat="50.24128" lon="4.9018">
        <ele>91</ele>
        <time>2026-08-21T19:55:18+00:00</time>
      </trkpt>
      <trkpt lat="50.24115" lon="4.90222">
        <ele>91</ele>
        <time>2026-08-21T19:55:21+00:00</time>
      </trkpt>
      <trkpt lat="50.24103" lon="4.90262">
        <ele>91</ele>
        <time>2026-08-21T19:55:24+00:00</time>
      </trkpt>
      <trkpt lat="50.24091" lon="4.90312">
        <ele>91</ele>
        <time>2026-08-21T19:55:27+00:00</time>
      </trkpt>
      <trkpt lat="50.24078" lon="4.90351">
        <ele>91</ele>
        <time>2026-08-21T19:55:30+00:00</time>
      </trkpt>
      <trkpt lat="50.24066" lon="4.90396">
        <ele>91</ele>
        <time>2026-08-21T19:55:33+00:00</time>
      </trkpt>
      <trkpt lat="50.24055" lon="4.90441">
        <ele>91</ele>
        <time>2026-08-21T19:55:36+00:00</time>
      </trkpt>
      <trkpt lat="50.24036" lon="4.90514">
        <ele>91</ele>
        <time>2026-08-21T19:55:39+00:00</time>
      </trkpt>
      <trkpt lat="50.2403" lon="4.90548">
        <ele>91</ele>
        <time>2026-08-21T19:55:42+00:00</time>
      </trkpt>
      <trkpt lat="50.24025" lon="4.9057">
        <ele>91</ele>
        <time>2026-08-21T19:55:45+00:00</time>
      </trkpt>
      <trkpt lat="50.24021" lon="4.90596">
        <ele>91</ele>
        <time>2026-08-21T19:55:48+00:00</time>
      </trkpt>
      <trkpt lat="50.24017" lon="4.90627">
        <ele>91</ele>
        <time>2026-08-21T19:55:51+00:00</time>
      </trkpt>
      <trkpt lat="50.24015" lon="4.90665">
        <ele>91</ele>
        <time>2026-08-21T19:55:54+00:00</time>
      </trkpt>
      <trkpt lat="50.24012" lon="4.90717">
        <ele>91</ele>
        <time>2026-08-21T19:55:57+00:00</time>
      </trkpt>
      <trkpt lat="50.24012" lon="4.90754">
        <ele>91</ele>
        <time>2026-08-21T19:56:00+00:00</time>
      </trkpt>
      <trkpt lat="50.24012" lon="4.90801">
        <ele>91</ele>
        <time>2026-08-21T19:56:03+00:00</time>
      </trkpt>
      <trkpt lat="50.24013" lon="4.90837">
        <ele>91</ele>
        <time>2026-08-21T19:56:06+00:00</time>
      </trkpt>
      <trkpt lat="50.24017" lon="4.90888">
        <ele>92</ele>
        <time>2026-08-21T19:56:09+00:00</time>
      </trkpt>
      <trkpt lat="50.24021" lon="4.90939">
        <ele>92</ele>
        <time>2026-08-21T19:56:12+00:00</time>
      </trkpt>
      <trkpt lat="50.24025" lon="4.9099">
        <ele>91</ele>
        <time>2026-08-21T19:56:15+00:00</time>
      </trkpt>
      <trkpt lat="50.2403" lon="4.91052">
        <ele>91</ele>
        <time>2026-08-21T19:56:18+00:00</time>
      </trkpt>
      <trkpt lat="50.24034" lon="4.91096">
        <ele>91</ele>
        <time>2026-08-21T19:56:21+00:00</time>
      </trkpt>
      <trkpt lat="50.24042" lon="4.91184">
        <ele>91</ele>
        <time>2026-08-21T19:56:24+00:00</time>
      </trkpt>
      <trkpt lat="50.24045" lon="4.91226">
        <ele>91</ele>
        <time>2026-08-21T19:56:27+00:00</time>
      </trkpt>
      <trkpt lat="50.24051" lon="4.91298">
        <ele>91</ele>
        <time>2026-08-21T19:56:30+00:00</time>
      </trkpt>
      <trkpt lat="50.24059" lon="4.91343">
        <ele>90</ele>
        <time>2026-08-21T19:56:33+00:00</time>
      </trkpt>
      <trkpt lat="50.24067" lon="4.91376">
        <ele>90</ele>
        <time>2026-08-21T19:56:36+00:00</time>
      </trkpt>
      <trkpt lat="50.24075" lon="4.91412">
        <ele>90</ele>
        <time>2026-08-21T19:56:39+00:00</time>
      </trkpt>
      <trkpt lat="50.24084" lon="4.91443">
        <ele>90</ele>
        <time>2026-08-21T19:56:42+00:00</time>
      </trkpt>
      <trkpt lat="50.24094" lon="4.91476">
        <ele>90</ele>
        <time>2026-08-21T19:56:45+00:00</time>
      </trkpt>
      <trkpt lat="50.24108" lon="4.91516">
        <ele>90</ele>
        <time>2026-08-21T19:56:48+00:00</time>
      </trkpt>
      <trkpt lat="50.24122" lon="4.91557">
        <ele>90</ele>
        <time>2026-08-21T19:56:51+00:00</time>
      </trkpt>
      <trkpt lat="50.24137" lon="4.91602">
        <ele>90</ele>
        <time>2026-08-21T19:56:54+00:00</time>
      </trkpt>
      <trkpt lat="50.24151" lon="4.91642">
        <ele>90</ele>
        <time>2026-08-21T19:56:57+00:00</time>
      </trkpt>
      <trkpt lat="50.24165" lon="4.91682">
        <ele>90</ele>
        <time>2026-08-21T19:57:00+00:00</time>
      </trkpt>
      <trkpt lat="50.24181" lon="4.91726">
        <ele>90</ele>
        <time>2026-08-21T19:57:03+00:00</time>
      </trkpt>
      <trkpt lat="50.24189" lon="4.91747">
        <ele>92</ele>
        <time>2026-08-21T19:57:06+00:00</time>
      </trkpt>
      <trkpt lat="50.24199" lon="4.91767">
        <ele>91</ele>
        <time>2026-08-21T19:57:09+00:00</time>
      </trkpt>
      <trkpt lat="50.24211" lon="4.91792">
        <ele>91</ele>
        <time>2026-08-21T19:57:12+00:00</time>
      </trkpt>
      <trkpt lat="50.24238" lon="4.91831">
        <ele>90</ele>
        <time>2026-08-21T19:57:15+00:00</time>
      </trkpt>
      <trkpt lat="50.24254" lon="4.91851">
        <ele>90</ele>
        <time>2026-08-21T19:57:18+00:00</time>
      </trkpt>
      <trkpt lat="50.24266" lon="4.91865">
        <ele>90</ele>
        <time>2026-08-21T19:57:21+00:00</time>
      </trkpt>
      <trkpt lat="50.24277" lon="4.91876">
        <ele>90</ele>
        <time>2026-08-21T19:57:24+00:00</time>
      </trkpt>
      <trkpt lat="50.24312" lon="4.91905">
        <ele>91</ele>
        <time>2026-08-21T19:57:27+00:00</time>
      </trkpt>
      <trkpt lat="50.24332" lon="4.91921">
        <ele>91</ele>
        <time>2026-08-21T19:57:30+00:00</time>
      </trkpt>
      <trkpt lat="50.24356" lon="4.9194">
        <ele>91</ele>
        <time>2026-08-21T19:57:33+00:00</time>
      </trkpt>
      <trkpt lat="50.24377" lon="4.91955">
        <ele>91</ele>
        <time>2026-08-21T19:57:36+00:00</time>
      </trkpt>
      <trkpt lat="50.24419" lon="4.91965">
        <ele>90</ele>
        <time>2026-08-21T19:57:39+00:00</time>
      </trkpt>
      <trkpt lat="50.24435" lon="4.91962">
        <ele>90</ele>
        <time>2026-08-21T19:57:42+00:00</time>
      </trkpt>
      <trkpt lat="50.2446" lon="4.91956">
        <ele>90</ele>
        <time>2026-08-21T19:57:45+00:00</time>
      </trkpt>
      <trkpt lat="50.24484" lon="4.9195">
        <ele>90</ele>
        <time>2026-08-21T19:57:48+00:00</time>
      </trkpt>
      <trkpt lat="50.24516" lon="4.91942">
        <ele>90</ele>
        <time>2026-08-21T19:57:51+00:00</time>
      </trkpt>
      <trkpt lat="50.24543" lon="4.91934">
        <ele>90</ele>
        <time>2026-08-21T19:57:54+00:00</time>
      </trkpt>
      <trkpt lat="50.24594" lon="4.9192">
        <ele>91</ele>
        <time>2026-08-21T19:57:57+00:00</time>
      </trkpt>
      <trkpt lat="50.24632" lon="4.91911">
        <ele>91</ele>
        <time>2026-08-21T19:58:00+00:00</time>
      </trkpt>
      <trkpt lat="50.24653" lon="4.91908">
        <ele>91</ele>
        <time>2026-08-21T19:58:03+00:00</time>
      </trkpt>
      <trkpt lat="50.24675" lon="4.91905">
        <ele>91</ele>
        <time>2026-08-21T19:58:06+00:00</time>
      </trkpt>
      <trkpt lat="50.24698" lon="4.91898">
        <ele>91</ele>
        <time>2026-08-21T19:58:09+00:00</time>
      </trkpt>
      <trkpt lat="50.24727" lon="4.9189">
        <ele>90</ele>
        <time>2026-08-21T19:58:12+00:00</time>
      </trkpt>
      <trkpt lat="50.24751" lon="4.91881">
        <ele>90</ele>
        <time>2026-08-21T19:58:15+00:00</time>
      </trkpt>
      <trkpt lat="50.24784" lon="4.91869">
        <ele>90</ele>
        <time>2026-08-21T19:58:18+00:00</time>
      </trkpt>
      <trkpt lat="50.24822" lon="4.91849">
        <ele>90</ele>
        <time>2026-08-21T19:58:21+00:00</time>
      </trkpt>
      <trkpt lat="50.24845" lon="4.91833">
        <ele>90</ele>
        <time>2026-08-21T19:58:24+00:00</time>
      </trkpt>
      <trkpt lat="50.2488" lon="4.91809">
        <ele>91</ele>
        <time>2026-08-21T19:58:27+00:00</time>
      </trkpt>
      <trkpt lat="50.24906" lon="4.91789">
        <ele>91</ele>
        <time>2026-08-21T19:58:30+00:00</time>
      </trkpt>
      <trkpt lat="50.24933" lon="4.91769">
        <ele>91</ele>
        <time>2026-08-21T19:58:33+00:00</time>
      </trkpt>
      <trkpt lat="50.24964" lon="4.91745">
        <ele>91</ele>
        <time>2026-08-21T19:58:36+00:00</time>
      </trkpt>
      <trkpt lat="50.24985" lon="4.91723">
        <ele>91</ele>
        <time>2026-08-21T19:58:39+00:00</time>
      </trkpt>
      <trkpt lat="50.25016" lon="4.91692">
        <ele>91</ele>
        <time>2026-08-21T19:58:42+00:00</time>
      </trkpt>
      <trkpt lat="50.25048" lon="4.91658">
        <ele>91</ele>
        <time>2026-08-21T19:58:45+00:00</time>
      </trkpt>
      <trkpt lat="50.2508" lon="4.91625">
        <ele>90</ele>
        <time>2026-08-21T19:58:48+00:00</time>
      </trkpt>
      <trkpt lat="50.25111" lon="4.91591">
        <ele>90</ele>
        <time>2026-08-21T19:58:51+00:00</time>
      </trkpt>
      <trkpt lat="50.25143" lon="4.91557">
        <ele>91</ele>
        <time>2026-08-21T19:58:54+00:00</time>
      </trkpt>
      <trkpt lat="50.25175" lon="4.91524">
        <ele>91</ele>
        <time>2026-08-21T19:58:57+00:00</time>
      </trkpt>
      <trkpt lat="50.25207" lon="4.9149">
        <ele>92</ele>
        <time>2026-08-21T19:59:00+00:00</time>
      </trkpt>
      <trkpt lat="50.25239" lon="4.91456">
        <ele>92</ele>
        <time>2026-08-21T19:59:03+00:00</time>
      </trkpt>
      <trkpt lat="50.2527" lon="4.91423">
        <ele>92</ele>
        <time>2026-08-21T19:59:06+00:00</time>
      </trkpt>
      <trkpt lat="50.25308" lon="4.91383">
        <ele>91</ele>
        <time>2026-08-21T19:59:09+00:00</time>
      </trkpt>
      <trkpt lat="50.25337" lon="4.91363">
        <ele>91</ele>
        <time>2026-08-21T19:59:12+00:00</time>
      </trkpt>
      <trkpt lat="50.25366" lon="4.91344">
        <ele>91</ele>
        <time>2026-08-21T19:59:15+00:00</time>
      </trkpt>
      <trkpt lat="50.25416" lon="4.9131">
        <ele>92</ele>
        <time>2026-08-21T19:59:18+00:00</time>
      </trkpt>
      <trkpt lat="50.25445" lon="4.91296">
        <ele>93</ele>
        <time>2026-08-21T19:59:21+00:00</time>
      </trkpt>
      <trkpt lat="50.25475" lon="4.91281">
        <ele>93</ele>
        <time>2026-08-21T19:59:24+00:00</time>
      </trkpt>
      <trkpt lat="50.2552" lon="4.91259">
        <ele>95</ele>
        <time>2026-08-21T19:59:27+00:00</time>
      </trkpt>
      <trkpt lat="50.25542" lon="4.91249">
        <ele>95</ele>
        <time>2026-08-21T19:59:30+00:00</time>
      </trkpt>
      <trkpt lat="50.25567" lon="4.91238">
        <ele>93</ele>
        <time>2026-08-21T19:59:33+00:00</time>
      </trkpt>
      <trkpt lat="50.25593" lon="4.91231">
        <ele>92</ele>
        <time>2026-08-21T19:59:36+00:00</time>
      </trkpt>
      <trkpt lat="50.25635" lon="4.91221">
        <ele>92</ele>
        <time>2026-08-21T19:59:39+00:00</time>
      </trkpt>
      <trkpt lat="50.25661" lon="4.91212">
        <ele>92</ele>
        <time>2026-08-21T19:59:42+00:00</time>
      </trkpt>
      <trkpt lat="50.257" lon="4.91199">
        <ele>92</ele>
        <time>2026-08-21T19:59:45+00:00</time>
      </trkpt>
      <trkpt lat="50.25729" lon="4.91191">
        <ele>93</ele>
        <time>2026-08-21T19:59:48+00:00</time>
      </trkpt>
      <trkpt lat="50.25758" lon="4.91184">
        <ele>93</ele>
        <time>2026-08-21T19:59:51+00:00</time>
      </trkpt>
      <trkpt lat="50.25793" lon="4.91175">
        <ele>93</ele>
        <time>2026-08-21T19:59:54+00:00</time>
      </trkpt>
      <trkpt lat="50.25826" lon="4.91164">
        <ele>93</ele>
        <time>2026-08-21T19:59:57+00:00</time>
      </trkpt>
      <trkpt lat="50.25853" lon="4.91152">
        <ele>93</ele>
        <time>2026-08-21T20:00:00+00:00</time>
      </trkpt>
      <trkpt lat="50.25906" lon="4.9113">
        <ele>93</ele>
        <time>2026-08-21T20:00:03+00:00</time>
      </trkpt>
      <trkpt lat="50.25924" lon="4.91121">
        <ele>91</ele>
        <time>2026-08-21T20:00:06+00:00</time>
      </trkpt>
      <trkpt lat="50.2594" lon="4.9111">
        <ele>91</ele>
        <time>2026-08-21T20:00:09+00:00</time>
      </trkpt>
      <trkpt lat="50.25966" lon="4.91089">
        <ele>92</ele>
        <time>2026-08-21T20:00:12+00:00</time>
      </trkpt>
      <trkpt lat="50.25987" lon="4.91073">
        <ele>92</ele>
        <time>2026-08-21T20:00:15+00:00</time>
      </trkpt>
      <trkpt lat="50.26013" lon="4.91054">
        <ele>92</ele>
        <time>2026-08-21T20:00:18+00:00</time>
      </trkpt>
      <trkpt lat="50.26021" lon="4.91047">
        <ele>94</ele>
        <time>2026-08-21T20:00:21+00:00</time>
      </trkpt>
      <trkpt lat="50.26029" lon="4.91088">
        <ele>92</ele>
        <time>2026-08-21T20:00:24+00:00</time>
      </trkpt>
      <trkpt lat="50.26037" lon="4.91129">
        <ele>92</ele>
        <time>2026-08-21T20:00:27+00:00</time>
      </trkpt>
      <trkpt lat="50.26047" lon="4.91184">
        <ele>92</ele>
        <time>2026-08-21T20:00:30+00:00</time>
      </trkpt>
      <trkpt lat="50.26049" lon="4.91192">
        <ele>92</ele>
        <time>2026-08-21T20:00:33+00:00</time>
      </trkpt>
      <trkpt lat="50.26049" lon="4.91206">
        <ele>92</ele>
        <time>2026-08-21T20:00:36+00:00</time>
      </trkpt>
      <trkpt lat="50.26047" lon="4.91213">
        <ele>91</ele>
        <time>2026-08-21T20:00:39+00:00</time>
      </trkpt>
      <trkpt lat="50.26042" lon="4.91218">
        <ele>93</ele>
        <time>2026-08-21T20:00:42+00:00</time>
      </trkpt>
      <trkpt lat="50.2601" lon="4.91231">
        <ele>91</ele>
        <time>2026-08-21T20:00:45+00:00</time>
      </trkpt>
      <trkpt lat="50.2597" lon="4.9124">
        <ele>91</ele>
        <time>2026-08-21T20:00:48+00:00</time>
      </trkpt>
      <trkpt lat="50.25959" lon="4.9124">
        <ele>91</ele>
        <time>2026-08-21T20:00:51+00:00</time>
      </trkpt>
      <trkpt lat="50.25941" lon="4.91246">
        <ele>90</ele>
        <time>2026-08-21T20:00:54+00:00</time>
      </trkpt>
      <trkpt lat="50.25918" lon="4.91254">
        <ele>90</ele>
        <time>2026-08-21T20:00:57+00:00</time>
      </trkpt>
      <trkpt lat="50.25886" lon="4.91264">
        <ele>90</ele>
        <time>2026-08-21T20:01:00+00:00</time>
      </trkpt>
      <trkpt lat="50.25864" lon="4.91273">
        <ele>90</ele>
        <time>2026-08-21T20:01:03+00:00</time>
      </trkpt>
      <trkpt lat="50.2584" lon="4.91284">
        <ele>90</ele>
        <time>2026-08-21T20:01:06+00:00</time>
      </trkpt>
      <trkpt lat="50.25835" lon="4.91287">
        <ele>90</ele>
        <time>2026-08-21T20:01:09+00:00</time>
      </trkpt>
      <trkpt lat="50.25814" lon="4.91294">
        <ele>90</ele>
        <time>2026-08-21T20:01:12+00:00</time>
      </trkpt>
      <trkpt lat="50.25789" lon="4.91303">
        <ele>90</ele>
        <time>2026-08-21T20:01:15+00:00</time>
      </trkpt>
      <trkpt lat="50.25762" lon="4.91311">
        <ele>90</ele>
        <time>2026-08-21T20:01:18+00:00</time>
      </trkpt>
      <trkpt lat="50.25739" lon="4.91319">
        <ele>90</ele>
        <time>2026-08-21T20:01:21+00:00</time>
      </trkpt>
      <trkpt lat="50.25737" lon="4.91304">
        <ele>90</ele>
        <time>2026-08-21T20:01:24+00:00</time>
      </trkpt>
      <trkpt lat="50.25715" lon="4.91311">
        <ele>90</ele>
        <time>2026-08-21T20:01:27+00:00</time>
      </trkpt>
      <trkpt lat="50.25701" lon="4.91317">
        <ele>91</ele>
        <time>2026-08-21T20:01:30+00:00</time>
      </trkpt>
      <trkpt lat="50.25679" lon="4.91323">
        <ele>90</ele>
        <time>2026-08-21T20:01:33+00:00</time>
      </trkpt>
      <trkpt lat="50.25639" lon="4.91334">
        <ele>91</ele>
        <time>2026-08-21T20:01:36+00:00</time>
      </trkpt>
      <trkpt lat="50.25632" lon="4.91335">
        <ele>91</ele>
        <time>2026-08-21T20:01:39+00:00</time>
      </trkpt>
      <trkpt lat="50.25615" lon="4.91342">
        <ele>91</ele>
        <time>2026-08-21T20:01:42+00:00</time>
      </trkpt>
      <trkpt lat="50.25597" lon="4.9135">
        <ele>92</ele>
        <time>2026-08-21T20:01:45+00:00</time>
      </trkpt>
      <trkpt lat="50.25577" lon="4.91361">
        <ele>92</ele>
        <time>2026-08-21T20:01:48+00:00</time>
      </trkpt>
      <trkpt lat="50.2556" lon="4.91374">
        <ele>91</ele>
        <time>2026-08-21T20:01:51+00:00</time>
      </trkpt>
      <trkpt lat="50.25536" lon="4.91391">
        <ele>90</ele>
        <time>2026-08-21T20:01:54+00:00</time>
      </trkpt>
      <trkpt lat="50.25508" lon="4.91413">
        <ele>90</ele>
        <time>2026-08-21T20:01:57+00:00</time>
      </trkpt>
      <trkpt lat="50.25479" lon="4.91435">
        <ele>90</ele>
        <time>2026-08-21T20:02:00+00:00</time>
      </trkpt>
      <trkpt lat="50.25431" lon="4.91472">
        <ele>90</ele>
        <time>2026-08-21T20:02:03+00:00</time>
      </trkpt>
      <trkpt lat="50.25411" lon="4.91488">
        <ele>90</ele>
        <time>2026-08-21T20:02:06+00:00</time>
      </trkpt>
      <trkpt lat="50.2539" lon="4.91506">
        <ele>91</ele>
        <time>2026-08-21T20:02:09+00:00</time>
      </trkpt>
      <trkpt lat="50.25369" lon="4.91522">
        <ele>91</ele>
        <time>2026-08-21T20:02:12+00:00</time>
      </trkpt>
      <trkpt lat="50.25345" lon="4.91541">
        <ele>90</ele>
        <time>2026-08-21T20:02:15+00:00</time>
      </trkpt>
      <trkpt lat="50.25324" lon="4.91561">
        <ele>89</ele>
        <time>2026-08-21T20:02:18+00:00</time>
      </trkpt>
      <trkpt lat="50.25296" lon="4.91587">
        <ele>89</ele>
        <time>2026-08-21T20:02:21+00:00</time>
      </trkpt>
      <trkpt lat="50.25273" lon="4.91607">
        <ele>89</ele>
        <time>2026-08-21T20:02:24+00:00</time>
      </trkpt>
      <trkpt lat="50.25271" lon="4.91609">
        <ele>89</ele>
        <time>2026-08-21T20:02:27+00:00</time>
      </trkpt>
      <trkpt lat="50.25268" lon="4.91622">
        <ele>90</ele>
        <time>2026-08-21T20:02:30+00:00</time>
      </trkpt>
      <trkpt lat="50.25251" lon="4.91638">
        <ele>89</ele>
        <time>2026-08-21T20:02:33+00:00</time>
      </trkpt>
      <trkpt lat="50.25229" lon="4.91658">
        <ele>89</ele>
        <time>2026-08-21T20:02:36+00:00</time>
      </trkpt>
      <trkpt lat="50.25208" lon="4.91685">
        <ele>89</ele>
        <time>2026-08-21T20:02:39+00:00</time>
      </trkpt>
      <trkpt lat="50.252" lon="4.91692">
        <ele>89</ele>
        <time>2026-08-21T20:02:42+00:00</time>
      </trkpt>
      <trkpt lat="50.25179" lon="4.91718">
        <ele>89</ele>
        <time>2026-08-21T20:02:45+00:00</time>
      </trkpt>
      <trkpt lat="50.25152" lon="4.91745">
        <ele>89</ele>
        <time>2026-08-21T20:02:48+00:00</time>
      </trkpt>
      <trkpt lat="50.25125" lon="4.91772">
        <ele>89</ele>
        <time>2026-08-21T20:02:51+00:00</time>
      </trkpt>
      <trkpt lat="50.25073" lon="4.91824">
        <ele>89</ele>
        <time>2026-08-21T20:02:54+00:00</time>
      </trkpt>
      <trkpt lat="50.25051" lon="4.91845">
        <ele>89</ele>
        <time>2026-08-21T20:02:57+00:00</time>
      </trkpt>
      <trkpt lat="50.2503" lon="4.91864">
        <ele>89</ele>
        <time>2026-08-21T20:03:00+00:00</time>
      </trkpt>
      <trkpt lat="50.25005" lon="4.91888">
        <ele>89</ele>
        <time>2026-08-21T20:03:03+00:00</time>
      </trkpt>
      <trkpt lat="50.2498" lon="4.91907">
        <ele>89</ele>
        <time>2026-08-21T20:03:06+00:00</time>
      </trkpt>
      <trkpt lat="50.24962" lon="4.91923">
        <ele>89</ele>
        <time>2026-08-21T20:03:09+00:00</time>
      </trkpt>
      <trkpt lat="50.24926" lon="4.9196">
        <ele>89</ele>
        <time>2026-08-21T20:03:12+00:00</time>
      </trkpt>
      <trkpt lat="50.2492" lon="4.91967">
        <ele>89</ele>
        <time>2026-08-21T20:03:15+00:00</time>
      </trkpt>
      <trkpt lat="50.24912" lon="4.91971">
        <ele>89</ele>
        <time>2026-08-21T20:03:18+00:00</time>
      </trkpt>
      <trkpt lat="50.24912" lon="4.91972">
        <ele>89</ele>
        <time>2026-08-21T20:03:21+00:00</time>
      </trkpt>
      <trkpt lat="50.24903" lon="4.9199">
        <ele>90</ele>
        <time>2026-08-21T20:03:24+00:00</time>
      </trkpt>
      <trkpt lat="50.24902" lon="4.91991">
        <ele>90</ele>
        <time>2026-08-21T20:03:27+00:00</time>
      </trkpt>
      <trkpt lat="50.24904" lon="4.92002">
        <ele>91</ele>
        <time>2026-08-21T20:03:30+00:00</time>
      </trkpt>
      <trkpt lat="50.24922" lon="4.91978">
        <ele>90</ele>
        <time>2026-08-21T20:03:33+00:00</time>
      </trkpt>
      <trkpt lat="50.24931" lon="4.91972">
        <ele>91</ele>
        <time>2026-08-21T20:03:36+00:00</time>
      </trkpt>
      <trkpt lat="50.24945" lon="4.91954">
        <ele>90</ele>
        <time>2026-08-21T20:03:39+00:00</time>
      </trkpt>
      <trkpt lat="50.24964" lon="4.91935">
        <ele>90</ele>
        <time>2026-08-21T20:03:42+00:00</time>
      </trkpt>
      <trkpt lat="50.24991" lon="4.91913">
        <ele>90</ele>
        <time>2026-08-21T20:03:45+00:00</time>
      </trkpt>
      <trkpt lat="50.2501" lon="4.91896">
        <ele>90</ele>
        <time>2026-08-21T20:03:48+00:00</time>
      </trkpt>
      <trkpt lat="50.2503" lon="4.91879">
        <ele>90</ele>
        <time>2026-08-21T20:03:51+00:00</time>
      </trkpt>
      <trkpt lat="50.25052" lon="4.91856">
        <ele>90</ele>
        <time>2026-08-21T20:03:54+00:00</time>
      </trkpt>
      <trkpt lat="50.25088" lon="4.91819">
        <ele>89</ele>
        <time>2026-08-21T20:03:57+00:00</time>
      </trkpt>
      <trkpt lat="50.25113" lon="4.91794">
        <ele>89</ele>
        <time>2026-08-21T20:04:00+00:00</time>
      </trkpt>
      <trkpt lat="50.25139" lon="4.9177">
        <ele>89</ele>
        <time>2026-08-21T20:04:03+00:00</time>
      </trkpt>
      <trkpt lat="50.25171" lon="4.91739">
        <ele>90</ele>
        <time>2026-08-21T20:04:06+00:00</time>
      </trkpt>
      <trkpt lat="50.25192" lon="4.91726">
        <ele>91</ele>
        <time>2026-08-21T20:04:09+00:00</time>
      </trkpt>
      <trkpt lat="50.25216" lon="4.91711">
        <ele>91</ele>
        <time>2026-08-21T20:04:12+00:00</time>
      </trkpt>
      <trkpt lat="50.25246" lon="4.9169">
        <ele>92</ele>
        <time>2026-08-21T20:04:15+00:00</time>
      </trkpt>
      <trkpt lat="50.25276" lon="4.91668">
        <ele>93</ele>
        <time>2026-08-21T20:04:18+00:00</time>
      </trkpt>
      <trkpt lat="50.25306" lon="4.91647">
        <ele>93</ele>
        <time>2026-08-21T20:04:21+00:00</time>
      </trkpt>
      <trkpt lat="50.25343" lon="4.91621">
        <ele>93</ele>
        <time>2026-08-21T20:04:24+00:00</time>
      </trkpt>
    </trkseg>
  </trk>
</gpx>
